<?xml version="1.0" encoding="UTF-8" standalone="no" ?>
<gpx xmlns="http://www.topografix.com/GPX/1/1" xmlns:xsi="http://www.w3.org/2001/XMLSchema-instance" xsi:schemaLocation="http://www.topografix.com/GPX/1/1 http://www.topografix.com/GPX/1/1/gpx.xsd" version="1.1" creator="VisuGPX - https://www.visugpx.com">
  <metadata>
    <name>Octon - St Martin des Combes</name>
    <desc><![CDATA[2016-01 - Octon - Notre-Dame-de-Roubignac - St Martin des Combes

[b]album[/b] : [url]https://goo.gl/photos/LLVhaZTKKFSZAdzY9[/url]
[img]https://2.bp.blogspot.com/-VDaR3lVtf84/WM7c3vOWGxI/AAAAAAAAQ0o/ZzwQmch25cE5UqsW8Fc0ECNFA6-6FrkpgCLcB/s640/2016-01_Octon.JPG[/img]
[b]Idées de randonnées dans la même région[/b]
Parcours : [url]https://www.visugpx.com/membres/24856/causses/salagou/[/url]
Photos : [url]https://jcvertygo.blogspot.com/p/salagou.html[/url]]]></desc>
  </metadata>
  <trk>
    <name><![CDATA[Octon - St Martin des Combes_1]]></name>
    <trkseg>
      <trkpt lat="43.65376" lon="3.30371">
        <ele>173.3</ele>
        <time>2016-01-09T10:31:50Z</time>
      </trkpt>
      <trkpt lat="43.65377" lon="3.30373">
        <ele>173.3</ele>
        <time>2016-01-09T10:31:55Z</time>
      </trkpt>
      <trkpt lat="43.65379" lon="3.30366">
        <ele>173.3</ele>
        <time>2016-01-09T10:32:10Z</time>
      </trkpt>
      <trkpt lat="43.65381" lon="3.3036">
        <ele>175.48991537506</ele>
        <time>2016-01-09T10:32:15Z</time>
      </trkpt>
      <trkpt lat="43.65384" lon="3.30355">
        <ele>175.48991537506</ele>
        <time>2016-01-09T10:32:20Z</time>
      </trkpt>
      <trkpt lat="43.6539" lon="3.30351">
        <ele>176.62994602652</ele>
        <time>2016-01-09T10:32:25Z</time>
      </trkpt>
      <trkpt lat="43.65417" lon="3.30326">
        <ele>178.70414687696</ele>
        <time>2016-01-09T10:32:55Z</time>
      </trkpt>
      <trkpt lat="43.65444" lon="3.30306">
        <ele>180.36996736763</ele>
        <time>2016-01-09T10:34:20Z</time>
      </trkpt>
      <trkpt lat="43.65474" lon="3.30293">
        <ele>184.02264792628</ele>
        <time>2016-01-09T10:34:25Z</time>
      </trkpt>
      <trkpt lat="43.65476" lon="3.30285">
        <ele>184.02264792628</ele>
        <time>2016-01-09T10:34:30Z</time>
      </trkpt>
      <trkpt lat="43.65475" lon="3.30279">
        <ele>186.87856249889</ele>
        <time>2016-01-09T10:34:35Z</time>
      </trkpt>
      <trkpt lat="43.65475" lon="3.3028">
        <ele>186.87856249889</ele>
        <time>2016-01-09T10:34:40Z</time>
      </trkpt>
      <trkpt lat="43.65478" lon="3.30274">
        <ele>186.87856249889</ele>
        <time>2016-01-09T10:34:45Z</time>
      </trkpt>
      <trkpt lat="43.65482" lon="3.30266">
        <ele>189.28476547287</ele>
        <time>2016-01-09T10:34:50Z</time>
      </trkpt>
      <trkpt lat="43.65485" lon="3.30257">
        <ele>189.28476547287</ele>
        <time>2016-01-09T10:34:55Z</time>
      </trkpt>
      <trkpt lat="43.65486" lon="3.30255">
        <ele>191.3515308655</ele>
        <time>2016-01-09T10:35:00Z</time>
      </trkpt>
      <trkpt lat="43.65496" lon="3.30253">
        <ele>192.95450113196</ele>
        <time>2016-01-09T10:35:25Z</time>
      </trkpt>
      <trkpt lat="43.65498" lon="3.30247">
        <ele>192.95450113196</ele>
        <time>2016-01-09T10:35:30Z</time>
      </trkpt>
      <trkpt lat="43.65498" lon="3.30245">
        <ele>192.95450113196</ele>
        <time>2016-01-09T10:35:35Z</time>
      </trkpt>
      <trkpt lat="43.65501" lon="3.30242">
        <ele>194.24411515152</ele>
        <time>2016-01-09T10:35:40Z</time>
      </trkpt>
      <trkpt lat="43.65516" lon="3.30232">
        <ele>195.36272301744</ele>
        <time>2016-01-09T10:35:55Z</time>
      </trkpt>
      <trkpt lat="43.65533" lon="3.30248">
        <ele>197.04295346008</ele>
        <time>2016-01-09T10:36:15Z</time>
      </trkpt>
      <trkpt lat="43.65556" lon="3.30264">
        <ele>200.04145853924</ele>
        <time>2016-01-09T10:36:48Z</time>
      </trkpt>
      <trkpt lat="43.65586" lon="3.30278">
        <ele>203.30306164202</ele>
        <time>2016-01-09T10:37:00Z</time>
      </trkpt>
      <trkpt lat="43.6559" lon="3.3028">
        <ele>203.30306164202</ele>
        <time>2016-01-09T10:37:00Z</time>
      </trkpt>
      <trkpt lat="43.65658" lon="3.30375">
        <ele>207.12168097558</ele>
        <time>2016-01-09T10:38:47Z</time>
      </trkpt>
      <trkpt lat="43.6567" lon="3.30388">
        <ele>210.04070623108</ele>
        <time>2016-01-09T10:39:00Z</time>
      </trkpt>
      <trkpt lat="43.65674" lon="3.30393">
        <ele>210.04070623108</ele>
        <time>2016-01-09T10:39:05Z</time>
      </trkpt>
      <trkpt lat="43.65692" lon="3.30408">
        <ele>212.94442023576</ele>
        <time>2016-01-09T10:39:41Z</time>
      </trkpt>
      <trkpt lat="43.65715" lon="3.30415">
        <ele>215.66770857753</ele>
        <time>2016-01-09T10:39:42Z</time>
      </trkpt>
      <trkpt lat="43.65743" lon="3.30419">
        <ele>217.89330777912</ele>
        <time>2016-01-09T10:40:14Z</time>
      </trkpt>
      <trkpt lat="43.65748" lon="3.30419">
        <ele>217.89330777912</ele>
        <time>2016-01-09T10:40:14Z</time>
      </trkpt>
      <trkpt lat="43.65749" lon="3.30419">
        <ele>217.89330777912</ele>
        <time>2016-01-09T10:40:16Z</time>
      </trkpt>
      <trkpt lat="43.65789" lon="3.30416">
        <ele>219.9292919995</ele>
        <time>2016-01-09T10:40:56Z</time>
      </trkpt>
      <trkpt lat="43.65797" lon="3.30419">
        <ele>219.9292919995</ele>
        <time>2016-01-09T10:40:56Z</time>
      </trkpt>
      <trkpt lat="43.65805" lon="3.30421">
        <ele>222.33952985924</ele>
        <time>2016-01-09T10:41:14Z</time>
      </trkpt>
      <trkpt lat="43.65867" lon="3.30439">
        <ele>226.11518235906</ele>
        <time>2016-01-09T10:42:02Z</time>
      </trkpt>
      <trkpt lat="43.65827" lon="3.30383">
        <ele>228.57938018877</ele>
        <time>2016-01-09T10:43:00Z</time>
      </trkpt>
      <trkpt lat="43.65823" lon="3.3038">
        <ele>228.57938018877</ele>
        <time>2016-01-09T10:43:00Z</time>
      </trkpt>
      <trkpt lat="43.65818" lon="3.30376">
        <ele>230.61639499568</ele>
        <time>2016-01-09T10:43:05Z</time>
      </trkpt>
      <trkpt lat="43.65757" lon="3.30287">
        <ele>233.03049880593</ele>
        <time>2016-01-09T10:44:30Z</time>
      </trkpt>
      <trkpt lat="43.65755" lon="3.30276">
        <ele>233.03049880593</ele>
        <time>2016-01-09T10:44:30Z</time>
      </trkpt>
      <trkpt lat="43.65749" lon="3.30262">
        <ele>235.59428334122</ele>
        <time>2016-01-09T10:44:55Z</time>
      </trkpt>
      <trkpt lat="43.65699" lon="3.30194">
        <ele>238.80459414592</ele>
        <time>2016-01-09T10:45:45Z</time>
      </trkpt>
      <trkpt lat="43.65698" lon="3.30186">
        <ele>238.80459414592</ele>
        <time>2016-01-09T10:45:50Z</time>
      </trkpt>
      <trkpt lat="43.65696" lon="3.30174">
        <ele>241.68042074306</ele>
        <time>2016-01-09T10:46:00Z</time>
      </trkpt>
      <trkpt lat="43.65696" lon="3.30168">
        <ele>241.68042074306</ele>
        <time>2016-01-09T10:46:05Z</time>
      </trkpt>
      <trkpt lat="43.657" lon="3.30149">
        <ele>244.25159512171</ele>
        <time>2016-01-09T10:46:15Z</time>
      </trkpt>
      <trkpt lat="43.65702" lon="3.30141">
        <ele>244.25159512171</ele>
        <time>2016-01-09T10:46:20Z</time>
      </trkpt>
      <trkpt lat="43.65702" lon="3.3013">
        <ele>246.64116212218</ele>
        <time>2016-01-09T10:46:30Z</time>
      </trkpt>
      <trkpt lat="43.65703" lon="3.30123">
        <ele>246.64116212218</ele>
        <time>2016-01-09T10:46:35Z</time>
      </trkpt>
      <trkpt lat="43.65713" lon="3.30093">
        <ele>249.0851936422</ele>
        <time>2016-01-09T10:46:59Z</time>
      </trkpt>
      <trkpt lat="43.65714" lon="3.3009">
        <ele>249.0851936422</ele>
        <time>2016-01-09T10:47:00Z</time>
      </trkpt>
      <trkpt lat="43.65716" lon="3.3008">
        <ele>251.32848316992</ele>
        <time>2016-01-09T10:47:08Z</time>
      </trkpt>
      <trkpt lat="43.65718" lon="3.30077">
        <ele>251.32848316992</ele>
        <time>2016-01-09T10:47:16Z</time>
      </trkpt>
      <trkpt lat="43.65737" lon="3.30006">
        <ele>253.68988435979</ele>
        <time>2016-01-09T10:48:00Z</time>
      </trkpt>
      <trkpt lat="43.65785" lon="3.29866">
        <ele>256.71644906714</ele>
        <time>2016-01-09T10:49:45Z</time>
      </trkpt>
      <trkpt lat="43.65789" lon="3.29856">
        <ele>256.71644906714</ele>
        <time>2016-01-09T10:50:28Z</time>
      </trkpt>
      <trkpt lat="43.65796" lon="3.29843">
        <ele>259.65169836996</ele>
        <time>2016-01-09T10:50:45Z</time>
      </trkpt>
      <trkpt lat="43.65798" lon="3.29839">
        <ele>259.65169836996</ele>
        <time>2016-01-09T10:50:45Z</time>
      </trkpt>
      <trkpt lat="43.65811" lon="3.29816">
        <ele>262.38752657708</ele>
        <time>2016-01-09T10:51:06Z</time>
      </trkpt>
      <trkpt lat="43.65819" lon="3.29799">
        <ele>264.7793887295</ele>
        <time>2016-01-09T10:51:27Z</time>
      </trkpt>
      <trkpt lat="43.65823" lon="3.29791">
        <ele>264.7793887295</ele>
        <time>2016-01-09T10:51:29Z</time>
      </trkpt>
      <trkpt lat="43.65829" lon="3.29783">
        <ele>266.94583599517</ele>
        <time>2016-01-09T10:51:37Z</time>
      </trkpt>
      <trkpt lat="43.65832" lon="3.2978">
        <ele>266.94583599517</ele>
        <time>2016-01-09T10:51:38Z</time>
      </trkpt>
      <trkpt lat="43.65856" lon="3.29746">
        <ele>268.98555560965</ele>
        <time>2016-01-09T10:52:17Z</time>
      </trkpt>
      <trkpt lat="43.65855" lon="3.29744">
        <ele>268.98555560965</ele>
        <time>2016-01-09T10:52:17Z</time>
      </trkpt>
      <trkpt lat="43.65861" lon="3.29737">
        <ele>268.98555560965</ele>
        <time>2016-01-09T10:52:34Z</time>
      </trkpt>
      <trkpt lat="43.6588" lon="3.29693">
        <ele>270.87790997886</ele>
        <time>2016-01-09T10:53:05Z</time>
      </trkpt>
      <trkpt lat="43.65914" lon="3.29666">
        <ele>272.86459238097</ele>
        <time>2016-01-09T10:53:43Z</time>
      </trkpt>
      <trkpt lat="43.6592" lon="3.29661">
        <ele>272.86459238097</ele>
        <time>2016-01-09T10:53:43Z</time>
      </trkpt>
      <trkpt lat="43.65926" lon="3.29652">
        <ele>274.75256829798</ele>
        <time>2016-01-09T10:53:51Z</time>
      </trkpt>
      <trkpt lat="43.65984" lon="3.29588">
        <ele>276.82850499788</ele>
        <time>2016-01-09T10:54:56Z</time>
      </trkpt>
      <trkpt lat="43.65988" lon="3.29584">
        <ele>276.82850499788</ele>
        <time>2016-01-09T10:54:57Z</time>
      </trkpt>
      <trkpt lat="43.66035" lon="3.29504">
        <ele>278.96486294403</ele>
        <time>2016-01-09T10:56:04Z</time>
      </trkpt>
      <trkpt lat="43.66057" lon="3.29458">
        <ele>280.93690045056</ele>
        <time>2016-01-09T10:56:37Z</time>
      </trkpt>
      <trkpt lat="43.66087" lon="3.29428">
        <ele>283.24876776582</ele>
        <time>2016-01-09T10:57:11Z</time>
      </trkpt>
      <trkpt lat="43.6609" lon="3.29424">
        <ele>283.24876776582</ele>
        <time>2016-01-09T10:57:26Z</time>
      </trkpt>
      <trkpt lat="43.66094" lon="3.29423">
        <ele>283.24876776582</ele>
        <time>2016-01-09T10:57:43Z</time>
      </trkpt>
      <trkpt lat="43.661" lon="3.29418">
        <ele>285.34045045506</ele>
        <time>2016-01-09T10:57:43Z</time>
      </trkpt>
      <trkpt lat="43.66122" lon="3.29394">
        <ele>287.46833823347</ele>
        <time>2016-01-09T10:58:36Z</time>
      </trkpt>
      <trkpt lat="43.6614" lon="3.29388">
        <ele>290.05247734872</ele>
        <time>2016-01-09T10:59:05Z</time>
      </trkpt>
      <trkpt lat="43.66165" lon="3.29367">
        <ele>292.9993980293</ele>
        <time>2016-01-09T10:59:43Z</time>
      </trkpt>
      <trkpt lat="43.66177" lon="3.29367">
        <ele>295.84275657427</ele>
        <time>2016-01-09T10:59:50Z</time>
      </trkpt>
      <trkpt lat="43.66168" lon="3.29362">
        <ele>298.0298962932</ele>
        <time>2016-01-09T10:59:55Z</time>
      </trkpt>
      <trkpt lat="43.66168" lon="3.29354">
        <ele>298.0298962932</ele>
        <time>2016-01-09T11:00:00Z</time>
      </trkpt>
      <trkpt lat="43.66172" lon="3.29305">
        <ele>299.70228736986</ele>
        <time>2016-01-09T11:00:35Z</time>
      </trkpt>
      <trkpt lat="43.66182" lon="3.2924">
        <ele>300.94799101514</ele>
        <time>2016-01-09T11:01:21Z</time>
      </trkpt>
      <trkpt lat="43.66183" lon="3.29234">
        <ele>300.94799101514</ele>
        <time>2016-01-09T11:01:21Z</time>
      </trkpt>
      <trkpt lat="43.66192" lon="3.29205">
        <ele>301.92550498826</ele>
        <time>2016-01-09T11:01:52Z</time>
      </trkpt>
      <trkpt lat="43.66213" lon="3.29172">
        <ele>302.46557710243</ele>
        <time>2016-01-09T11:03:00Z</time>
      </trkpt>
      <trkpt lat="43.66212" lon="3.29117">
        <ele>302.82004023851</ele>
        <time>2016-01-09T11:03:05Z</time>
      </trkpt>
      <trkpt lat="43.66206" lon="3.29081">
        <ele>303.11548036239</ele>
        <time>2016-01-09T11:03:28Z</time>
      </trkpt>
      <trkpt lat="43.66196" lon="3.29035">
        <ele>303.54269229101</ele>
        <time>2016-01-09T11:04:07Z</time>
      </trkpt>
      <trkpt lat="43.66234" lon="3.28913">
        <ele>304.30560859095</ele>
        <time>2016-01-09T11:05:39Z</time>
      </trkpt>
      <trkpt lat="43.66235" lon="3.28912">
        <ele>304.30560859095</ele>
        <time>2016-01-09T11:05:44Z</time>
      </trkpt>
      <trkpt lat="43.66238" lon="3.28906">
        <ele>304.30560859095</ele>
        <time>2016-01-09T11:05:45Z</time>
      </trkpt>
      <trkpt lat="43.66249" lon="3.28826">
        <ele>305.41094118282</ele>
        <time>2016-01-09T11:06:50Z</time>
      </trkpt>
      <trkpt lat="43.66256" lon="3.2881">
        <ele>306.37330752141</ele>
        <time>2016-01-09T11:06:50Z</time>
      </trkpt>
      <trkpt lat="43.66257" lon="3.28792">
        <ele>307.26715972976</ele>
        <time>2016-01-09T11:07:01Z</time>
      </trkpt>
      <trkpt lat="43.66258" lon="3.28726">
        <ele>308.48596542835</ele>
        <time>2016-01-09T11:07:38Z</time>
      </trkpt>
      <trkpt lat="43.66272" lon="3.28679">
        <ele>309.8878361772</ele>
        <time>2016-01-09T11:08:10Z</time>
      </trkpt>
      <trkpt lat="43.66273" lon="3.28671">
        <ele>309.8878361772</ele>
        <time>2016-01-09T11:08:15Z</time>
      </trkpt>
      <trkpt lat="43.66276" lon="3.28661">
        <ele>311.40104496809</ele>
        <time>2016-01-09T11:08:21Z</time>
      </trkpt>
      <trkpt lat="43.66278" lon="3.28658">
        <ele>311.40104496809</ele>
        <time>2016-01-09T11:08:25Z</time>
      </trkpt>
      <trkpt lat="43.66282" lon="3.2865">
        <ele>312.82738238668</ele>
        <time>2016-01-09T11:08:30Z</time>
      </trkpt>
      <trkpt lat="43.66283" lon="3.28643">
        <ele>312.82738238668</ele>
        <time>2016-01-09T11:08:35Z</time>
      </trkpt>
      <trkpt lat="43.66286" lon="3.28637">
        <ele>314.26344460255</ele>
        <time>2016-01-09T11:08:40Z</time>
      </trkpt>
      <trkpt lat="43.66289" lon="3.28623">
        <ele>315.71009768758</ele>
        <time>2016-01-09T11:08:50Z</time>
      </trkpt>
      <trkpt lat="43.66291" lon="3.28616">
        <ele>315.71009768758</ele>
        <time>2016-01-09T11:08:55Z</time>
      </trkpt>
      <trkpt lat="43.66292" lon="3.28603">
        <ele>317.31394837374</ele>
        <time>2016-01-09T11:09:05Z</time>
      </trkpt>
      <trkpt lat="43.66295" lon="3.286">
        <ele>317.31394837374</ele>
        <time>2016-01-09T11:09:10Z</time>
      </trkpt>
      <trkpt lat="43.66305" lon="3.28578">
        <ele>319.38412334035</ele>
        <time>2016-01-09T11:09:25Z</time>
      </trkpt>
      <trkpt lat="43.66308" lon="3.28571">
        <ele>319.38412334035</ele>
        <time>2016-01-09T11:09:30Z</time>
      </trkpt>
      <trkpt lat="43.66311" lon="3.28564">
        <ele>321.41859407595</ele>
        <time>2016-01-09T11:09:35Z</time>
      </trkpt>
      <trkpt lat="43.66331" lon="3.28533">
        <ele>323.59428072235</ele>
        <time>2016-01-09T11:10:06Z</time>
      </trkpt>
      <trkpt lat="43.66334" lon="3.28527">
        <ele>323.59428072235</ele>
        <time>2016-01-09T11:10:06Z</time>
      </trkpt>
      <trkpt lat="43.66373" lon="3.28469">
        <ele>326.50886406061</ele>
        <time>2016-01-09T11:11:01Z</time>
      </trkpt>
      <trkpt lat="43.66451" lon="3.28392">
        <ele>329.53804328978</ele>
        <time>2016-01-09T11:13:04Z</time>
      </trkpt>
      <trkpt lat="43.66435" lon="3.2841">
        <ele>333.77021012052</ele>
        <time>2016-01-09T11:13:23Z</time>
      </trkpt>
      <trkpt lat="43.66389" lon="3.28484">
        <ele>337.56054993826</ele>
        <time>2016-01-09T11:14:17Z</time>
      </trkpt>
      <trkpt lat="43.66386" lon="3.2852">
        <ele>340.9231220666</ele>
        <time>2016-01-09T11:14:59Z</time>
      </trkpt>
      <trkpt lat="43.66386" lon="3.28519">
        <ele>340.9231220666</ele>
        <time>2016-01-09T11:15:00Z</time>
      </trkpt>
      <trkpt lat="43.6644" lon="3.28441">
        <ele>344.13177658363</ele>
        <time>2016-01-09T11:16:19Z</time>
      </trkpt>
      <trkpt lat="43.66458" lon="3.28417">
        <ele>347.2233951688</ele>
        <time>2016-01-09T11:16:47Z</time>
      </trkpt>
      <trkpt lat="43.66463" lon="3.28415">
        <ele>347.2233951688</ele>
        <time>2016-01-09T11:16:48Z</time>
      </trkpt>
      <trkpt lat="43.66471" lon="3.28409">
        <ele>350.05917392698</ele>
        <time>2016-01-09T11:17:00Z</time>
      </trkpt>
      <trkpt lat="43.66476" lon="3.28404">
        <ele>350.05917392698</ele>
        <time>2016-01-09T11:17:00Z</time>
      </trkpt>
      <trkpt lat="43.66484" lon="3.28392">
        <ele>352.7132893108</ele>
        <time>2016-01-09T11:17:15Z</time>
      </trkpt>
      <trkpt lat="43.66485" lon="3.28389">
        <ele>352.7132893108</ele>
        <time>2016-01-09T11:17:15Z</time>
      </trkpt>
      <trkpt lat="43.66529" lon="3.28381">
        <ele>355.37022093997</ele>
        <time>2016-01-09T11:18:00Z</time>
      </trkpt>
      <trkpt lat="43.6653" lon="3.28381">
        <ele>355.37022093997</ele>
        <time>2016-01-09T11:18:01Z</time>
      </trkpt>
      <trkpt lat="43.66555" lon="3.28374">
        <ele>357.98444474828</ele>
        <time>2016-01-09T11:18:39Z</time>
      </trkpt>
      <trkpt lat="43.66562" lon="3.28376">
        <ele>357.98444474828</ele>
        <time>2016-01-09T11:18:39Z</time>
      </trkpt>
      <trkpt lat="43.66575" lon="3.2838">
        <ele>360.60046507049</ele>
        <time>2016-01-09T11:18:56Z</time>
      </trkpt>
      <trkpt lat="43.66578" lon="3.2838">
        <ele>360.60046507049</ele>
        <time>2016-01-09T11:19:00Z</time>
      </trkpt>
      <trkpt lat="43.66601" lon="3.28388">
        <ele>363.50463483562</ele>
        <time>2016-01-09T11:19:37Z</time>
      </trkpt>
      <trkpt lat="43.66653" lon="3.28406">
        <ele>367.13448452449</ele>
        <time>2016-01-09T11:20:34Z</time>
      </trkpt>
      <trkpt lat="43.66655" lon="3.28405">
        <ele>367.13448452449</ele>
        <time>2016-01-09T11:20:41Z</time>
      </trkpt>
      <trkpt lat="43.6668" lon="3.28416">
        <ele>371.12930808235</ele>
        <time>2016-01-09T11:21:00Z</time>
      </trkpt>
      <trkpt lat="43.66713" lon="3.28422">
        <ele>375.41349517455</ele>
        <time>2016-01-09T11:21:43Z</time>
      </trkpt>
      <trkpt lat="43.66739" lon="3.28424">
        <ele>379.46927257277</ele>
        <time>2016-01-09T11:22:00Z</time>
      </trkpt>
      <trkpt lat="43.6674" lon="3.28424">
        <ele>379.46927257277</ele>
        <time>2016-01-09T11:22:06Z</time>
      </trkpt>
      <trkpt lat="43.66775" lon="3.28417">
        <ele>383.76923901468</ele>
        <time>2016-01-09T11:22:55Z</time>
      </trkpt>
      <trkpt lat="43.66778" lon="3.28412">
        <ele>383.76923901468</ele>
        <time>2016-01-09T11:23:03Z</time>
      </trkpt>
      <trkpt lat="43.66813" lon="3.2834">
        <ele>387.46734162793</ele>
        <time>2016-01-09T11:24:02Z</time>
      </trkpt>
      <trkpt lat="43.66817" lon="3.28333">
        <ele>387.46734162793</ele>
        <time>2016-01-09T11:24:07Z</time>
      </trkpt>
      <trkpt lat="43.66821" lon="3.28307">
        <ele>390.7619786253</ele>
        <time>2016-01-09T11:24:31Z</time>
      </trkpt>
      <trkpt lat="43.66828" lon="3.28265">
        <ele>393.79498596771</ele>
        <time>2016-01-09T11:25:09Z</time>
      </trkpt>
      <trkpt lat="43.66833" lon="3.28252">
        <ele>396.65538850881</ele>
        <time>2016-01-09T11:25:26Z</time>
      </trkpt>
      <trkpt lat="43.66838" lon="3.28242">
        <ele>399.22436214131</ele>
        <time>2016-01-09T11:25:26Z</time>
      </trkpt>
      <trkpt lat="43.6684" lon="3.28237">
        <ele>399.22436214131</ele>
        <time>2016-01-09T11:26:38Z</time>
      </trkpt>
      <trkpt lat="43.66838" lon="3.2823">
        <ele>401.00330021417</ele>
        <time>2016-01-09T11:26:44Z</time>
      </trkpt>
      <trkpt lat="43.66836" lon="3.28226">
        <ele>401.00330021417</ele>
        <time>2016-01-09T11:26:57Z</time>
      </trkpt>
      <trkpt lat="43.66833" lon="3.28223">
        <ele>401.00330021417</ele>
        <time>2016-01-09T11:27:13Z</time>
      </trkpt>
      <trkpt lat="43.66832" lon="3.28222">
        <ele>401.00330021417</ele>
        <time>2016-01-09T11:27:15Z</time>
      </trkpt>
      <trkpt lat="43.6683" lon="3.28217">
        <ele>402.22490342419</ele>
        <time>2016-01-09T11:27:20Z</time>
      </trkpt>
      <trkpt lat="43.66831" lon="3.2821">
        <ele>402.22490342419</ele>
        <time>2016-01-09T11:27:27Z</time>
      </trkpt>
      <trkpt lat="43.66832" lon="3.28205">
        <ele>403.14973620825</ele>
        <time>2016-01-09T11:27:30Z</time>
      </trkpt>
      <trkpt lat="43.66834" lon="3.282">
        <ele>403.14973620825</ele>
        <time>2016-01-09T11:27:35Z</time>
      </trkpt>
      <trkpt lat="43.66834" lon="3.282">
        <ele>403.14973620825</ele>
        <time>2016-01-09T11:27:40Z</time>
      </trkpt>
      <trkpt lat="43.66834" lon="3.28196">
        <ele>403.14973620825</ele>
        <time>2016-01-09T11:27:50Z</time>
      </trkpt>
      <trkpt lat="43.66836" lon="3.28191">
        <ele>403.65952774145</ele>
        <time>2016-01-09T11:27:55Z</time>
      </trkpt>
      <trkpt lat="43.66838" lon="3.28185">
        <ele>403.65952774145</ele>
        <time>2016-01-09T11:28:00Z</time>
      </trkpt>
      <trkpt lat="43.66841" lon="3.28178">
        <ele>403.83345001905</ele>
        <time>2016-01-09T11:28:05Z</time>
      </trkpt>
      <trkpt lat="43.66845" lon="3.28172">
        <ele>403.83345001905</ele>
        <time>2016-01-09T11:28:10Z</time>
      </trkpt>
      <trkpt lat="43.66869" lon="3.28135">
        <ele>403.5871723469</ele>
        <time>2016-01-09T11:28:49Z</time>
      </trkpt>
      <trkpt lat="43.66875" lon="3.28129">
        <ele>403.5871723469</ele>
        <time>2016-01-09T11:28:49Z</time>
      </trkpt>
      <trkpt lat="43.66881" lon="3.28117">
        <ele>403.10339687804</ele>
        <time>2016-01-09T11:28:57Z</time>
      </trkpt>
      <trkpt lat="43.66951" lon="3.28005">
        <ele>401.4702764883</ele>
        <time>2016-01-09T11:30:44Z</time>
      </trkpt>
      <trkpt lat="43.66974" lon="3.28004">
        <ele>399.37513015506</ele>
        <time>2016-01-09T11:31:02Z</time>
      </trkpt>
      <trkpt lat="43.66982" lon="3.28013">
        <ele>396.82131090813</ele>
        <time>2016-01-09T11:31:20Z</time>
      </trkpt>
      <trkpt lat="43.66982" lon="3.28016">
        <ele>396.82131090813</ele>
        <time>2016-01-09T11:31:38Z</time>
      </trkpt>
      <trkpt lat="43.66982" lon="3.28016">
        <ele>396.82131090813</ele>
        <time>2016-01-09T11:31:43Z</time>
      </trkpt>
      <trkpt lat="43.66983" lon="3.28022">
        <ele>396.82131090813</ele>
        <time>2016-01-09T11:32:49Z</time>
      </trkpt>
      <trkpt lat="43.66983" lon="3.28023">
        <ele>396.82131090813</ele>
        <time>2016-01-09T11:32:50Z</time>
      </trkpt>
      <trkpt lat="43.66999" lon="3.28045">
        <ele>393.68331248714</ele>
        <time>2016-01-09T11:33:20Z</time>
      </trkpt>
      <trkpt lat="43.67003" lon="3.28054">
        <ele>393.68331248714</ele>
        <time>2016-01-09T11:33:20Z</time>
      </trkpt>
      <trkpt lat="43.66993" lon="3.28071">
        <ele>390.52416301276</ele>
        <time>2016-01-09T11:33:40Z</time>
      </trkpt>
      <trkpt lat="43.67009" lon="3.281">
        <ele>387.20195824732</ele>
        <time>2016-01-09T11:34:01Z</time>
      </trkpt>
      <trkpt lat="43.6701" lon="3.28099">
        <ele>387.20195824732</ele>
        <time>2016-01-09T11:34:01Z</time>
      </trkpt>
      <trkpt lat="43.67027" lon="3.28099">
        <ele>384.04692326256</ele>
        <time>2016-01-09T11:34:20Z</time>
      </trkpt>
      <trkpt lat="43.6713" lon="3.28063">
        <ele>381.39308418239</ele>
        <time>2016-01-09T11:35:45Z</time>
      </trkpt>
      <trkpt lat="43.67135" lon="3.28062">
        <ele>381.39308418239</ele>
        <time>2016-01-09T11:35:50Z</time>
      </trkpt>
      <trkpt lat="43.67162" lon="3.28038">
        <ele>378.85612480548</ele>
        <time>2016-01-09T11:36:29Z</time>
      </trkpt>
      <trkpt lat="43.67169" lon="3.28032">
        <ele>378.85612480548</ele>
        <time>2016-01-09T11:36:35Z</time>
      </trkpt>
      <trkpt lat="43.6717" lon="3.28032">
        <ele>378.85612480548</ele>
        <time>2016-01-09T11:36:40Z</time>
      </trkpt>
      <trkpt lat="43.67171" lon="3.2803">
        <ele>377.14632037597</ele>
        <time>2016-01-09T11:37:15Z</time>
      </trkpt>
      <trkpt lat="43.67174" lon="3.28024">
        <ele>377.14632037597</ele>
        <time>2016-01-09T11:37:20Z</time>
      </trkpt>
      <trkpt lat="43.67175" lon="3.28015">
        <ele>375.40527061899</ele>
        <time>2016-01-09T11:37:25Z</time>
      </trkpt>
      <trkpt lat="43.67177" lon="3.28009">
        <ele>375.40527061899</ele>
        <time>2016-01-09T11:37:30Z</time>
      </trkpt>
      <trkpt lat="43.67178" lon="3.28007">
        <ele>375.40527061899</ele>
        <time>2016-01-09T11:37:35Z</time>
      </trkpt>
      <trkpt lat="43.6718" lon="3.28002">
        <ele>373.61605071714</ele>
        <time>2016-01-09T11:37:50Z</time>
      </trkpt>
      <trkpt lat="43.67232" lon="3.27926">
        <ele>372.2241017012</ele>
        <time>2016-01-09T11:39:09Z</time>
      </trkpt>
      <trkpt lat="43.67237" lon="3.27922">
        <ele>372.2241017012</ele>
        <time>2016-01-09T11:39:15Z</time>
      </trkpt>
      <trkpt lat="43.67245" lon="3.27917">
        <ele>370.79017455599</ele>
        <time>2016-01-09T11:39:27Z</time>
      </trkpt>
      <trkpt lat="43.67245" lon="3.27915">
        <ele>370.79017455599</ele>
        <time>2016-01-09T11:39:41Z</time>
      </trkpt>
      <trkpt lat="43.67252" lon="3.27906">
        <ele>369.12337617426</ele>
        <time>2016-01-09T11:40:08Z</time>
      </trkpt>
      <trkpt lat="43.67254" lon="3.27904">
        <ele>369.12337617426</ele>
        <time>2016-01-09T11:40:17Z</time>
      </trkpt>
      <trkpt lat="43.67385" lon="3.27711">
        <ele>367.52285521201</ele>
        <time>2016-01-09T11:43:45Z</time>
      </trkpt>
      <trkpt lat="43.67393" lon="3.27706">
        <ele>367.52285521201</ele>
        <time>2016-01-09T11:45:42Z</time>
      </trkpt>
      <trkpt lat="43.67419" lon="3.27716">
        <ele>366.22200860942</ele>
        <time>2016-01-09T11:45:58Z</time>
      </trkpt>
      <trkpt lat="43.67427" lon="3.27722">
        <ele>365.06117807287</ele>
        <time>2016-01-09T11:46:07Z</time>
      </trkpt>
      <trkpt lat="43.67449" lon="3.27735">
        <ele>364.00705384931</ele>
        <time>2016-01-09T11:46:23Z</time>
      </trkpt>
      <trkpt lat="43.67463" lon="3.27737">
        <ele>363.07141381676</ele>
        <time>2016-01-09T11:46:29Z</time>
      </trkpt>
      <trkpt lat="43.67465" lon="3.27723">
        <ele>362.27895665867</ele>
        <time>2016-01-09T11:46:43Z</time>
      </trkpt>
      <trkpt lat="43.67459" lon="3.27694">
        <ele>361.76717435874</ele>
        <time>2016-01-09T11:47:09Z</time>
      </trkpt>
      <trkpt lat="43.67444" lon="3.27662">
        <ele>361.41739319418</ele>
        <time>2016-01-09T11:47:27Z</time>
      </trkpt>
      <trkpt lat="43.67435" lon="3.27651">
        <ele>361.14776913687</ele>
        <time>2016-01-09T11:47:35Z</time>
      </trkpt>
      <trkpt lat="43.6741" lon="3.27635">
        <ele>360.95405554227</ele>
        <time>2016-01-09T11:48:20Z</time>
      </trkpt>
      <trkpt lat="43.67379" lon="3.27616">
        <ele>360.99039369563</ele>
        <time>2016-01-09T11:48:25Z</time>
      </trkpt>
      <trkpt lat="43.67374" lon="3.27614">
        <ele>360.99039369563</ele>
        <time>2016-01-09T11:48:30Z</time>
      </trkpt>
      <trkpt lat="43.67362" lon="3.27608">
        <ele>361.16815202156</ele>
        <time>2016-01-09T11:48:48Z</time>
      </trkpt>
      <trkpt lat="43.67358" lon="3.27597">
        <ele>361.16815202156</ele>
        <time>2016-01-09T11:49:08Z</time>
      </trkpt>
      <trkpt lat="43.67326" lon="3.27547">
        <ele>362.55751252811</ele>
        <time>2016-01-09T11:50:45Z</time>
      </trkpt>
      <trkpt lat="43.67308" lon="3.27501">
        <ele>364.15770081264</ele>
        <time>2016-01-09T11:51:36Z</time>
      </trkpt>
      <trkpt lat="43.67305" lon="3.2749">
        <ele>364.15770081264</ele>
        <time>2016-01-09T11:52:03Z</time>
      </trkpt>
      <trkpt lat="43.67292" lon="3.2745">
        <ele>365.70362831674</ele>
        <time>2016-01-09T11:52:19Z</time>
      </trkpt>
      <trkpt lat="43.67291" lon="3.27448">
        <ele>365.70362831674</ele>
        <time>2016-01-09T11:52:20Z</time>
      </trkpt>
      <trkpt lat="43.67288" lon="3.2744">
        <ele>365.70362831674</ele>
        <time>2016-01-09T11:52:25Z</time>
      </trkpt>
      <trkpt lat="43.67279" lon="3.27406">
        <ele>367.79995811252</ele>
        <time>2016-01-09T11:52:45Z</time>
      </trkpt>
      <trkpt lat="43.67279" lon="3.27399">
        <ele>367.79995811252</ele>
        <time>2016-01-09T11:52:50Z</time>
      </trkpt>
      <trkpt lat="43.67281" lon="3.27393">
        <ele>370.38559620254</ele>
        <time>2016-01-09T11:52:55Z</time>
      </trkpt>
      <trkpt lat="43.67281" lon="3.27396">
        <ele>370.38559620254</ele>
        <time>2016-01-09T11:53:00Z</time>
      </trkpt>
      <trkpt lat="43.6728" lon="3.27404">
        <ele>370.38559620254</ele>
        <time>2016-01-09T11:53:05Z</time>
      </trkpt>
      <trkpt lat="43.6728" lon="3.27412">
        <ele>373.30160160947</ele>
        <time>2016-01-09T11:53:10Z</time>
      </trkpt>
      <trkpt lat="43.67282" lon="3.27417">
        <ele>373.30160160947</ele>
        <time>2016-01-09T11:53:15Z</time>
      </trkpt>
      <trkpt lat="43.67284" lon="3.27423">
        <ele>373.30160160947</ele>
        <time>2016-01-09T11:53:20Z</time>
      </trkpt>
      <trkpt lat="43.67286" lon="3.27428">
        <ele>376.24120205717</ele>
        <time>2016-01-09T11:53:25Z</time>
      </trkpt>
      <trkpt lat="43.67289" lon="3.27436">
        <ele>376.24120205717</ele>
        <time>2016-01-09T11:53:30Z</time>
      </trkpt>
      <trkpt lat="43.67292" lon="3.27443">
        <ele>379.10741385957</ele>
        <time>2016-01-09T11:53:35Z</time>
      </trkpt>
      <trkpt lat="43.67291" lon="3.27442">
        <ele>379.10741385957</ele>
        <time>2016-01-09T11:53:40Z</time>
      </trkpt>
      <trkpt lat="43.67281" lon="3.27393">
        <ele>381.52235624317</ele>
        <time>2016-01-09T11:54:10Z</time>
      </trkpt>
      <trkpt lat="43.67281" lon="3.27392">
        <ele>381.52235624317</ele>
        <time>2016-01-09T11:54:17Z</time>
      </trkpt>
      <trkpt lat="43.67297" lon="3.27372">
        <ele>383.82894404234</ele>
        <time>2016-01-09T11:54:25Z</time>
      </trkpt>
      <trkpt lat="43.673" lon="3.27369">
        <ele>383.82894404234</ele>
        <time>2016-01-09T11:54:30Z</time>
      </trkpt>
      <trkpt lat="43.67302" lon="3.27363">
        <ele>383.82894404234</ele>
        <time>2016-01-09T11:54:35Z</time>
      </trkpt>
      <trkpt lat="43.67304" lon="3.27358">
        <ele>386.07143715633</ele>
        <time>2016-01-09T11:54:40Z</time>
      </trkpt>
      <trkpt lat="43.67306" lon="3.2735">
        <ele>386.07143715633</ele>
        <time>2016-01-09T11:54:46Z</time>
      </trkpt>
      <trkpt lat="43.67317" lon="3.27323">
        <ele>388.5937300172</ele>
        <time>2016-01-09T11:55:03Z</time>
      </trkpt>
      <trkpt lat="43.67337" lon="3.2724">
        <ele>392.05962932333</ele>
        <time>2016-01-09T11:56:00Z</time>
      </trkpt>
      <trkpt lat="43.67339" lon="3.27227">
        <ele>395.3522572643</ele>
        <time>2016-01-09T11:56:00Z</time>
      </trkpt>
      <trkpt lat="43.6734" lon="3.27225">
        <ele>395.3522572643</ele>
        <time>2016-01-09T11:56:01Z</time>
      </trkpt>
      <trkpt lat="43.67355" lon="3.27189">
        <ele>398.70559599655</ele>
        <time>2016-01-09T11:56:25Z</time>
      </trkpt>
      <trkpt lat="43.67397" lon="3.27151">
        <ele>402.10582412507</ele>
        <time>2016-01-09T11:57:08Z</time>
      </trkpt>
      <trkpt lat="43.67584" lon="3.27112">
        <ele>403.59460695604</ele>
        <time>2016-01-09T11:59:31Z</time>
      </trkpt>
      <trkpt lat="43.67619" lon="3.27105">
        <ele>404.86498864276</ele>
        <time>2016-01-09T11:59:56Z</time>
      </trkpt>
      <trkpt lat="43.6765" lon="3.27132">
        <ele>405.78586567181</ele>
        <time>2016-01-09T12:00:27Z</time>
      </trkpt>
      <trkpt lat="43.67679" lon="3.27128">
        <ele>407.01513217521</ele>
        <time>2016-01-09T12:00:53Z</time>
      </trkpt>
      <trkpt lat="43.67746" lon="3.27126">
        <ele>409.47870178163</ele>
        <time>2016-01-09T12:02:00Z</time>
      </trkpt>
      <trkpt lat="43.67728" lon="3.27113">
        <ele>411.92709616234</ele>
        <time>2016-01-09T12:02:20Z</time>
      </trkpt>
      <trkpt lat="43.67723" lon="3.27108">
        <ele>411.92709616234</ele>
        <time>2016-01-09T12:02:25Z</time>
      </trkpt>
      <trkpt lat="43.67723" lon="3.27107">
        <ele>411.92709616234</ele>
        <time>2016-01-09T12:02:30Z</time>
      </trkpt>
      <trkpt lat="43.67717" lon="3.27099">
        <ele>414.2116344404</ele>
        <time>2016-01-09T12:02:35Z</time>
      </trkpt>
      <trkpt lat="43.67712" lon="3.27095">
        <ele>414.2116344404</ele>
        <time>2016-01-09T12:02:40Z</time>
      </trkpt>
      <trkpt lat="43.67707" lon="3.2709">
        <ele>416.36812075268</ele>
        <time>2016-01-09T12:02:45Z</time>
      </trkpt>
      <trkpt lat="43.67701" lon="3.27088">
        <ele>416.36812075268</ele>
        <time>2016-01-09T12:02:50Z</time>
      </trkpt>
      <trkpt lat="43.67694" lon="3.27087">
        <ele>418.27173096312</ele>
        <time>2016-01-09T12:03:00Z</time>
      </trkpt>
      <trkpt lat="43.67661" lon="3.27066">
        <ele>419.83651152558</ele>
        <time>2016-01-09T12:03:32Z</time>
      </trkpt>
      <trkpt lat="43.67629" lon="3.27037">
        <ele>421.09923061289</ele>
        <time>2016-01-09T12:03:57Z</time>
      </trkpt>
      <trkpt lat="43.67626" lon="3.27026">
        <ele>421.09923061289</ele>
        <time>2016-01-09T12:04:00Z</time>
      </trkpt>
      <trkpt lat="43.67615" lon="3.26981">
        <ele>421.89320465066</ele>
        <time>2016-01-09T12:04:23Z</time>
      </trkpt>
      <trkpt lat="43.67614" lon="3.26977">
        <ele>421.89320465066</ele>
        <time>2016-01-09T12:04:25Z</time>
      </trkpt>
      <trkpt lat="43.6763" lon="3.26922">
        <ele>422.32486617698</ele>
        <time>2016-01-09T12:05:04Z</time>
      </trkpt>
      <trkpt lat="43.67632" lon="3.26916">
        <ele>422.32486617698</ele>
        <time>2016-01-09T12:05:09Z</time>
      </trkpt>
      <trkpt lat="43.67379" lon="3.26874">
        <ele>421.88871140719</ele>
        <time>2016-01-09T12:08:21Z</time>
      </trkpt>
      <trkpt lat="43.67372" lon="3.26871">
        <ele>421.88871140719</ele>
        <time>2016-01-09T12:08:21Z</time>
      </trkpt>
      <trkpt lat="43.67339" lon="3.26841">
        <ele>421.28624494808</ele>
        <time>2016-01-09T12:08:58Z</time>
      </trkpt>
      <trkpt lat="43.6733" lon="3.2683">
        <ele>420.47626939401</ele>
        <time>2016-01-09T12:08:58Z</time>
      </trkpt>
      <trkpt lat="43.67329" lon="3.26796">
        <ele>419.75274148035</ele>
        <time>2016-01-09T12:09:25Z</time>
      </trkpt>
      <trkpt lat="43.67326" lon="3.26797">
        <ele>419.75274148035</ele>
        <time>2016-01-09T12:09:25Z</time>
      </trkpt>
      <trkpt lat="43.67322" lon="3.26781">
        <ele>419.14285685074</ele>
        <time>2016-01-09T12:09:48Z</time>
      </trkpt>
      <trkpt lat="43.67323" lon="3.26765">
        <ele>418.74359902597</ele>
        <time>2016-01-09T12:09:48Z</time>
      </trkpt>
      <trkpt lat="43.6732" lon="3.26757">
        <ele>418.74359902597</ele>
        <time>2016-01-09T12:10:03Z</time>
      </trkpt>
      <trkpt lat="43.67307" lon="3.26701">
        <ele>418.86043620934</ele>
        <time>2016-01-09T12:10:45Z</time>
      </trkpt>
      <trkpt lat="43.67313" lon="3.26653">
        <ele>419.16969838623</ele>
        <time>2016-01-09T12:11:23Z</time>
      </trkpt>
      <trkpt lat="43.67313" lon="3.26536">
        <ele>419.76006420348</ele>
        <time>2016-01-09T12:12:20Z</time>
      </trkpt>
      <trkpt lat="43.67314" lon="3.26523">
        <ele>419.76006420348</ele>
        <time>2016-01-09T12:12:28Z</time>
      </trkpt>
      <trkpt lat="43.67317" lon="3.26508">
        <ele>420.3093992284</ele>
        <time>2016-01-09T12:12:35Z</time>
      </trkpt>
      <trkpt lat="43.67317" lon="3.26508">
        <ele>420.3093992284</ele>
        <time>2016-01-09T12:12:40Z</time>
      </trkpt>
      <trkpt lat="43.6732" lon="3.26496">
        <ele>420.77874644627</ele>
        <time>2016-01-09T12:12:50Z</time>
      </trkpt>
      <trkpt lat="43.6732" lon="3.26488">
        <ele>420.77874644627</ele>
        <time>2016-01-09T12:12:55Z</time>
      </trkpt>
      <trkpt lat="43.6732" lon="3.26481">
        <ele>421.17546135804</ele>
        <time>2016-01-09T12:13:00Z</time>
      </trkpt>
      <trkpt lat="43.67322" lon="3.26472">
        <ele>421.17546135804</ele>
        <time>2016-01-09T12:13:05Z</time>
      </trkpt>
      <trkpt lat="43.67322" lon="3.26464">
        <ele>421.69389688251</ele>
        <time>2016-01-09T12:13:10Z</time>
      </trkpt>
      <trkpt lat="43.67323" lon="3.26456">
        <ele>421.69389688251</ele>
        <time>2016-01-09T12:13:15Z</time>
      </trkpt>
      <trkpt lat="43.67323" lon="3.26455">
        <ele>421.69389688251</ele>
        <time>2016-01-09T12:13:20Z</time>
      </trkpt>
      <trkpt lat="43.67324" lon="3.26447">
        <ele>422.13908341297</ele>
        <time>2016-01-09T12:13:45Z</time>
      </trkpt>
      <trkpt lat="43.67324" lon="3.26437">
        <ele>422.13908341297</ele>
        <time>2016-01-09T12:13:50Z</time>
      </trkpt>
      <trkpt lat="43.67325" lon="3.26429">
        <ele>422.6331953551</ele>
        <time>2016-01-09T12:13:55Z</time>
      </trkpt>
      <trkpt lat="43.67327" lon="3.26421">
        <ele>422.6331953551</ele>
        <time>2016-01-09T12:14:00Z</time>
      </trkpt>
      <trkpt lat="43.67329" lon="3.26412">
        <ele>423.20280760473</ele>
        <time>2016-01-09T12:14:05Z</time>
      </trkpt>
      <trkpt lat="43.6733" lon="3.26404">
        <ele>423.20280760473</ele>
        <time>2016-01-09T12:14:18Z</time>
      </trkpt>
      <trkpt lat="43.67332" lon="3.26389">
        <ele>423.82907491762</ele>
        <time>2016-01-09T12:14:18Z</time>
      </trkpt>
      <trkpt lat="43.67336" lon="3.26378">
        <ele>423.82907491762</ele>
        <time>2016-01-09T12:14:26Z</time>
      </trkpt>
      <trkpt lat="43.67356" lon="3.26247">
        <ele>426.03634569199</ele>
        <time>2016-01-09T12:16:00Z</time>
      </trkpt>
      <trkpt lat="43.67373" lon="3.26227">
        <ele>428.43677958301</ele>
        <time>2016-01-09T12:16:18Z</time>
      </trkpt>
      <trkpt lat="43.67376" lon="3.26224">
        <ele>428.43677958301</ele>
        <time>2016-01-09T12:16:18Z</time>
      </trkpt>
      <trkpt lat="43.67377" lon="3.26223">
        <ele>428.43677958301</ele>
        <time>2016-01-09T12:16:20Z</time>
      </trkpt>
      <trkpt lat="43.67393" lon="3.26209">
        <ele>431.05534617958</ele>
        <time>2016-01-09T12:16:55Z</time>
      </trkpt>
      <trkpt lat="43.67382" lon="3.26198">
        <ele>433.43900207777</ele>
        <time>2016-01-09T12:16:58Z</time>
      </trkpt>
      <trkpt lat="43.67365" lon="3.262">
        <ele>435.68745587514</ele>
        <time>2016-01-09T12:17:15Z</time>
      </trkpt>
      <trkpt lat="43.67362" lon="3.262">
        <ele>435.68745587514</ele>
        <time>2016-01-09T12:17:15Z</time>
      </trkpt>
      <trkpt lat="43.67351" lon="3.26184">
        <ele>437.43233780145</ele>
        <time>2016-01-09T12:17:40Z</time>
      </trkpt>
      <trkpt lat="43.67342" lon="3.26181">
        <ele>437.43233780145</ele>
        <time>2016-01-09T12:17:40Z</time>
      </trkpt>
      <trkpt lat="43.67285" lon="3.2614">
        <ele>438.47789212627</ele>
        <time>2016-01-09T12:18:35Z</time>
      </trkpt>
      <trkpt lat="43.67282" lon="3.26127">
        <ele>439.37970597194</ele>
        <time>2016-01-09T12:18:35Z</time>
      </trkpt>
      <trkpt lat="43.67288" lon="3.26102">
        <ele>440.19183483585</ele>
        <time>2016-01-09T12:19:00Z</time>
      </trkpt>
      <trkpt lat="43.67288" lon="3.26092">
        <ele>440.19183483585</ele>
        <time>2016-01-09T12:19:00Z</time>
      </trkpt>
      <trkpt lat="43.67211" lon="3.26147">
        <ele>441.35374775355</ele>
        <time>2016-01-09T12:20:20Z</time>
      </trkpt>
      <trkpt lat="43.67203" lon="3.26149">
        <ele>441.35374775355</ele>
        <time>2016-01-09T12:20:25Z</time>
      </trkpt>
      <trkpt lat="43.67198" lon="3.2615">
        <ele>442.59435664054</ele>
        <time>2016-01-09T12:20:30Z</time>
      </trkpt>
      <trkpt lat="43.67199" lon="3.26151">
        <ele>442.59435664054</ele>
        <time>2016-01-09T12:20:35Z</time>
      </trkpt>
      <trkpt lat="43.67194" lon="3.26152">
        <ele>442.59435664054</ele>
        <time>2016-01-09T12:20:40Z</time>
      </trkpt>
      <trkpt lat="43.67188" lon="3.26151">
        <ele>443.87846171648</ele>
        <time>2016-01-09T12:20:45Z</time>
      </trkpt>
      <trkpt lat="43.6718" lon="3.26149">
        <ele>443.87846171648</ele>
        <time>2016-01-09T12:20:50Z</time>
      </trkpt>
      <trkpt lat="43.67175" lon="3.26152">
        <ele>445.08688735036</ele>
        <time>2016-01-09T12:20:55Z</time>
      </trkpt>
      <trkpt lat="43.67174" lon="3.26159">
        <ele>445.08688735036</ele>
        <time>2016-01-09T12:21:00Z</time>
      </trkpt>
      <trkpt lat="43.67168" lon="3.26168">
        <ele>445.92210620068</ele>
        <time>2016-01-09T12:21:05Z</time>
      </trkpt>
      <trkpt lat="43.67168" lon="3.26176">
        <ele>445.92210620068</ele>
        <time>2016-01-09T12:21:10Z</time>
      </trkpt>
      <trkpt lat="43.67168" lon="3.26183">
        <ele>446.57067425953</ele>
        <time>2016-01-09T12:21:15Z</time>
      </trkpt>
      <trkpt lat="43.67171" lon="3.26189">
        <ele>446.57067425953</ele>
        <time>2016-01-09T12:21:20Z</time>
      </trkpt>
      <trkpt lat="43.67176" lon="3.26193">
        <ele>446.71600890569</ele>
        <time>2016-01-09T12:21:25Z</time>
      </trkpt>
      <trkpt lat="43.67181" lon="3.262">
        <ele>446.71600890569</ele>
        <time>2016-01-09T12:21:30Z</time>
      </trkpt>
      <trkpt lat="43.67185" lon="3.26205">
        <ele>446.61383246506</ele>
        <time>2016-01-09T12:21:35Z</time>
      </trkpt>
      <trkpt lat="43.67188" lon="3.26209">
        <ele>446.61383246506</ele>
        <time>2016-01-09T12:21:40Z</time>
      </trkpt>
      <trkpt lat="43.67194" lon="3.26211">
        <ele>446.2423823319</ele>
        <time>2016-01-09T12:21:45Z</time>
      </trkpt>
      <trkpt lat="43.67195" lon="3.26212">
        <ele>446.2423823319</ele>
        <time>2016-01-09T12:21:50Z</time>
      </trkpt>
      <trkpt lat="43.67194" lon="3.26217">
        <ele>446.2423823319</ele>
        <time>2016-01-09T12:21:55Z</time>
      </trkpt>
      <trkpt lat="43.67194" lon="3.26228">
        <ele>445.38048981793</ele>
        <time>2016-01-09T12:22:00Z</time>
      </trkpt>
      <trkpt lat="43.67194" lon="3.26237">
        <ele>445.38048981793</ele>
        <time>2016-01-09T12:22:05Z</time>
      </trkpt>
      <trkpt lat="43.67194" lon="3.26246">
        <ele>444.41544846212</ele>
        <time>2016-01-09T12:22:10Z</time>
      </trkpt>
      <trkpt lat="43.67192" lon="3.26254">
        <ele>444.41544846212</ele>
        <time>2016-01-09T12:22:15Z</time>
      </trkpt>
      <trkpt lat="43.67193" lon="3.26261">
        <ele>443.25961544778</ele>
        <time>2016-01-09T12:22:20Z</time>
      </trkpt>
      <trkpt lat="43.6719" lon="3.26271">
        <ele>443.25961544778</ele>
        <time>2016-01-09T12:22:25Z</time>
      </trkpt>
      <trkpt lat="43.67187" lon="3.26278">
        <ele>441.9907987629</ele>
        <time>2016-01-09T12:22:30Z</time>
      </trkpt>
      <trkpt lat="43.67185" lon="3.26285">
        <ele>441.9907987629</ele>
        <time>2016-01-09T12:22:35Z</time>
      </trkpt>
      <trkpt lat="43.67181" lon="3.26291">
        <ele>440.76781469354</ele>
        <time>2016-01-09T12:22:40Z</time>
      </trkpt>
      <trkpt lat="43.67176" lon="3.26297">
        <ele>440.76781469354</ele>
        <time>2016-01-09T12:22:45Z</time>
      </trkpt>
      <trkpt lat="43.6713" lon="3.26343">
        <ele>439.85290018735</ele>
        <time>2016-01-09T12:23:30Z</time>
      </trkpt>
      <trkpt lat="43.67124" lon="3.26351">
        <ele>439.85290018735</ele>
        <time>2016-01-09T12:23:35Z</time>
      </trkpt>
      <trkpt lat="43.67112" lon="3.26372">
        <ele>439.0557452063</ele>
        <time>2016-01-09T12:23:51Z</time>
      </trkpt>
      <trkpt lat="43.67062" lon="3.26414">
        <ele>438.55987270753</ele>
        <time>2016-01-09T12:24:40Z</time>
      </trkpt>
      <trkpt lat="43.67057" lon="3.2642">
        <ele>438.55987270753</ele>
        <time>2016-01-09T12:24:45Z</time>
      </trkpt>
      <trkpt lat="43.67053" lon="3.26424">
        <ele>438.10204322099</ele>
        <time>2016-01-09T12:24:50Z</time>
      </trkpt>
      <trkpt lat="43.6704" lon="3.26432">
        <ele>437.59666322536</ele>
        <time>2016-01-09T12:26:35Z</time>
      </trkpt>
      <trkpt lat="43.66939" lon="3.26499">
        <ele>436.89239355324</ele>
        <time>2016-01-09T12:27:59Z</time>
      </trkpt>
      <trkpt lat="43.66921" lon="3.26514">
        <ele>436.61324616599</ele>
        <time>2016-01-09T12:28:00Z</time>
      </trkpt>
      <trkpt lat="43.66916" lon="3.2652">
        <ele>436.61324616599</ele>
        <time>2016-01-09T12:28:05Z</time>
      </trkpt>
      <trkpt lat="43.66916" lon="3.26519">
        <ele>436.61324616599</ele>
        <time>2016-01-09T12:28:10Z</time>
      </trkpt>
      <trkpt lat="43.66921" lon="3.26533">
        <ele>436.42818497378</ele>
        <time>2016-01-09T12:28:17Z</time>
      </trkpt>
      <trkpt lat="43.66921" lon="3.26534">
        <ele>436.42818497378</ele>
        <time>2016-01-09T12:28:20Z</time>
      </trkpt>
      <trkpt lat="43.66922" lon="3.26536">
        <ele>436.42818497378</ele>
        <time>2016-01-09T12:28:30Z</time>
      </trkpt>
      <trkpt lat="43.66918" lon="3.26539">
        <ele>436.42818497378</ele>
        <time>2016-01-09T12:28:37Z</time>
      </trkpt>
      <trkpt lat="43.66913" lon="3.26541">
        <ele>436.82272450042</ele>
        <time>2016-01-09T12:28:45Z</time>
      </trkpt>
      <trkpt lat="43.66898" lon="3.26551">
        <ele>437.17855212052</ele>
        <time>2016-01-09T12:28:55Z</time>
      </trkpt>
      <trkpt lat="43.66891" lon="3.2655">
        <ele>437.17855212052</ele>
        <time>2016-01-09T12:29:00Z</time>
      </trkpt>
      <trkpt lat="43.66891" lon="3.2655">
        <ele>437.17855212052</ele>
        <time>2016-01-09T12:29:10Z</time>
      </trkpt>
      <trkpt lat="43.66888" lon="3.26551">
        <ele>437.68656596029</ele>
        <time>2016-01-09T12:30:52Z</time>
      </trkpt>
      <trkpt lat="43.66878" lon="3.2655">
        <ele>438.06195566581</ele>
        <time>2016-01-09T12:31:01Z</time>
      </trkpt>
      <trkpt lat="43.6686" lon="3.26561">
        <ele>438.30050880369</ele>
        <time>2016-01-09T12:32:01Z</time>
      </trkpt>
      <trkpt lat="43.66853" lon="3.26547">
        <ele>438.52831577829</ele>
        <time>2016-01-09T12:32:35Z</time>
      </trkpt>
      <trkpt lat="43.66835" lon="3.26555">
        <ele>438.86214949133</ele>
        <time>2016-01-09T12:32:47Z</time>
      </trkpt>
      <trkpt lat="43.66829" lon="3.26559">
        <ele>438.86214949133</ele>
        <time>2016-01-09T12:33:10Z</time>
      </trkpt>
      <trkpt lat="43.66815" lon="3.26572">
        <ele>439.09278238679</ele>
        <time>2016-01-09T12:33:19Z</time>
      </trkpt>
      <trkpt lat="43.66814" lon="3.26576">
        <ele>439.09278238679</ele>
        <time>2016-01-09T12:33:21Z</time>
      </trkpt>
      <trkpt lat="43.66809" lon="3.26584">
        <ele>439.3868483702</ele>
        <time>2016-01-09T12:33:25Z</time>
      </trkpt>
      <trkpt lat="43.66807" lon="3.26593">
        <ele>439.3868483702</ele>
        <time>2016-01-09T12:33:30Z</time>
      </trkpt>
      <trkpt lat="43.66807" lon="3.26596">
        <ele>439.86966948752</ele>
        <time>2016-01-09T12:33:35Z</time>
      </trkpt>
      <trkpt lat="43.66807" lon="3.26606">
        <ele>439.86966948752</ele>
        <time>2016-01-09T12:33:40Z</time>
      </trkpt>
      <trkpt lat="43.66806" lon="3.26616">
        <ele>440.42618865482</ele>
        <time>2016-01-09T12:33:46Z</time>
      </trkpt>
      <trkpt lat="43.66805" lon="3.26625">
        <ele>440.42618865482</ele>
        <time>2016-01-09T12:33:50Z</time>
      </trkpt>
      <trkpt lat="43.66803" lon="3.26634">
        <ele>441.05041182269</ele>
        <time>2016-01-09T12:33:55Z</time>
      </trkpt>
      <trkpt lat="43.66802" lon="3.26644">
        <ele>441.05041182269</ele>
        <time>2016-01-09T12:34:00Z</time>
      </trkpt>
      <trkpt lat="43.66801" lon="3.26653">
        <ele>441.66448569951</ele>
        <time>2016-01-09T12:34:05Z</time>
      </trkpt>
      <trkpt lat="43.66802" lon="3.26661">
        <ele>441.66448569951</ele>
        <time>2016-01-09T12:34:10Z</time>
      </trkpt>
      <trkpt lat="43.66801" lon="3.26672">
        <ele>442.44124600438</ele>
        <time>2016-01-09T12:34:15Z</time>
      </trkpt>
      <trkpt lat="43.66803" lon="3.26679">
        <ele>442.44124600438</ele>
        <time>2016-01-09T12:34:20Z</time>
      </trkpt>
      <trkpt lat="43.66804" lon="3.26688">
        <ele>443.33857934358</ele>
        <time>2016-01-09T12:34:25Z</time>
      </trkpt>
      <trkpt lat="43.66807" lon="3.26747">
        <ele>443.94240447733</ele>
        <time>2016-01-09T12:35:08Z</time>
      </trkpt>
      <trkpt lat="43.66791" lon="3.26788">
        <ele>444.25895343285</ele>
        <time>2016-01-09T12:35:35Z</time>
      </trkpt>
      <trkpt lat="43.66772" lon="3.268">
        <ele>444.48212713445</ele>
        <time>2016-01-09T12:35:45Z</time>
      </trkpt>
      <trkpt lat="43.66675" lon="3.26798">
        <ele>444.6044794891</ele>
        <time>2016-01-09T12:37:00Z</time>
      </trkpt>
      <trkpt lat="43.66659" lon="3.26811">
        <ele>444.76348650174</ele>
        <time>2016-01-09T12:37:19Z</time>
      </trkpt>
      <trkpt lat="43.66645" lon="3.26827">
        <ele>444.91347103758</ele>
        <time>2016-01-09T12:37:36Z</time>
      </trkpt>
      <trkpt lat="43.66627" lon="3.26868">
        <ele>445.27151975294</ele>
        <time>2016-01-09T12:38:02Z</time>
      </trkpt>
      <trkpt lat="43.66626" lon="3.26871">
        <ele>445.27151975294</ele>
        <time>2016-01-09T12:38:02Z</time>
      </trkpt>
      <trkpt lat="43.6662" lon="3.26888">
        <ele>445.64907255118</ele>
        <time>2016-01-09T12:38:19Z</time>
      </trkpt>
      <trkpt lat="43.66573" lon="3.26979">
        <ele>446.69278671058</ele>
        <time>2016-01-09T12:39:16Z</time>
      </trkpt>
      <trkpt lat="43.66509" lon="3.27122">
        <ele>447.97674965289</ele>
        <time>2016-01-09T12:40:39Z</time>
      </trkpt>
      <trkpt lat="43.66509" lon="3.27124">
        <ele>447.97674965289</ele>
        <time>2016-01-09T12:40:45Z</time>
      </trkpt>
      <trkpt lat="43.66495" lon="3.27151">
        <ele>449.20653718852</ele>
        <time>2016-01-09T12:40:59Z</time>
      </trkpt>
      <trkpt lat="43.66494" lon="3.27152">
        <ele>449.20653718852</ele>
        <time>2016-01-09T12:41:00Z</time>
      </trkpt>
      <trkpt lat="43.66474" lon="3.27209">
        <ele>450.28244302434</ele>
        <time>2016-01-09T12:41:40Z</time>
      </trkpt>
      <trkpt lat="43.66473" lon="3.27218">
        <ele>450.28244302434</ele>
        <time>2016-01-09T12:41:41Z</time>
      </trkpt>
      <trkpt lat="43.66468" lon="3.27248">
        <ele>451.29987317535</ele>
        <time>2016-01-09T12:42:08Z</time>
      </trkpt>
      <trkpt lat="43.66439" lon="3.27313">
        <ele>452.592397104</ele>
        <time>2016-01-09T12:42:43Z</time>
      </trkpt>
      <trkpt lat="43.66438" lon="3.27314">
        <ele>452.592397104</ele>
        <time>2016-01-09T12:42:52Z</time>
      </trkpt>
      <trkpt lat="43.66433" lon="3.2732">
        <ele>452.592397104</ele>
        <time>2016-01-09T12:42:52Z</time>
      </trkpt>
      <trkpt lat="43.66432" lon="3.27323">
        <ele>454.00717851197</ele>
        <time>2016-01-09T12:43:04Z</time>
      </trkpt>
      <trkpt lat="43.6644" lon="3.27339">
        <ele>455.56081988893</ele>
        <time>2016-01-09T12:43:27Z</time>
      </trkpt>
      <trkpt lat="43.66438" lon="3.2733">
        <ele>455.56081988893</ele>
        <time>2016-01-09T12:43:46Z</time>
      </trkpt>
      <trkpt lat="43.66404" lon="3.27296">
        <ele>457.48452116483</ele>
        <time>2016-01-09T12:44:58Z</time>
      </trkpt>
      <trkpt lat="43.66374" lon="3.27301">
        <ele>460.00592065615</ele>
        <time>2016-01-09T12:46:01Z</time>
      </trkpt>
      <trkpt lat="43.66349" lon="3.27318">
        <ele>462.26789439966</ele>
        <time>2016-01-09T12:46:58Z</time>
      </trkpt>
      <trkpt lat="43.66344" lon="3.27327">
        <ele>462.26789439966</ele>
        <time>2016-01-09T12:47:36Z</time>
      </trkpt>
      <trkpt lat="43.66312" lon="3.27372">
        <ele>463.8950014995</ele>
        <time>2016-01-09T12:48:46Z</time>
      </trkpt>
      <trkpt lat="43.66312" lon="3.27372">
        <ele>463.8950014995</ele>
        <time>2016-01-09T12:48:46Z</time>
      </trkpt>
      <trkpt lat="43.6631" lon="3.2738">
        <ele>463.8950014995</ele>
        <time>2016-01-09T12:48:57Z</time>
      </trkpt>
      <trkpt lat="43.66278" lon="3.2743">
        <ele>464.72858311348</ele>
        <time>2016-01-09T12:50:04Z</time>
      </trkpt>
      <trkpt lat="43.66276" lon="3.27436">
        <ele>464.72858311348</ele>
        <time>2016-01-09T12:50:09Z</time>
      </trkpt>
      <trkpt lat="43.66252" lon="3.27477">
        <ele>465.04186470774</ele>
        <time>2016-01-09T12:50:47Z</time>
      </trkpt>
      <trkpt lat="43.66251" lon="3.27477">
        <ele>465.04186470774</ele>
        <time>2016-01-09T12:50:53Z</time>
      </trkpt>
      <trkpt lat="43.66218" lon="3.27519">
        <ele>464.78690626304</ele>
        <time>2016-01-09T12:52:26Z</time>
      </trkpt>
      <trkpt lat="43.66215" lon="3.27521">
        <ele>464.78690626304</ele>
        <time>2016-01-09T12:52:52Z</time>
      </trkpt>
      <trkpt lat="43.66212" lon="3.27528">
        <ele>464.20917871502</ele>
        <time>2016-01-09T12:52:54Z</time>
      </trkpt>
      <trkpt lat="43.6621" lon="3.27532">
        <ele>464.20917871502</ele>
        <time>2016-01-09T12:52:55Z</time>
      </trkpt>
      <trkpt lat="43.66189" lon="3.27564">
        <ele>463.11916601053</ele>
        <time>2016-01-09T12:54:05Z</time>
      </trkpt>
      <trkpt lat="43.66173" lon="3.27599">
        <ele>462.13537128953</ele>
        <time>2016-01-09T12:54:40Z</time>
      </trkpt>
      <trkpt lat="43.66173" lon="3.27605">
        <ele>462.13537128953</ele>
        <time>2016-01-09T12:54:45Z</time>
      </trkpt>
      <trkpt lat="43.66171" lon="3.27613">
        <ele>461.32621032902</ele>
        <time>2016-01-09T12:54:51Z</time>
      </trkpt>
      <trkpt lat="43.66171" lon="3.27622">
        <ele>461.32621032902</ele>
        <time>2016-01-09T12:54:55Z</time>
      </trkpt>
      <trkpt lat="43.6617" lon="3.27624">
        <ele>461.32621032902</ele>
        <time>2016-01-09T12:55:00Z</time>
      </trkpt>
      <trkpt lat="43.66169" lon="3.27628">
        <ele>460.68254814917</ele>
        <time>2016-01-09T12:55:05Z</time>
      </trkpt>
      <trkpt lat="43.66166" lon="3.27635">
        <ele>460.68254814917</ele>
        <time>2016-01-09T12:55:10Z</time>
      </trkpt>
      <trkpt lat="43.66165" lon="3.27639">
        <ele>460.68254814917</ele>
        <time>2016-01-09T12:55:15Z</time>
      </trkpt>
      <trkpt lat="43.66163" lon="3.27643">
        <ele>459.99370838238</ele>
        <time>2016-01-09T12:55:20Z</time>
      </trkpt>
      <trkpt lat="43.66159" lon="3.2765">
        <ele>459.99370838238</ele>
        <time>2016-01-09T12:55:25Z</time>
      </trkpt>
      <trkpt lat="43.66156" lon="3.27658">
        <ele>459.30960272847</ele>
        <time>2016-01-09T12:55:30Z</time>
      </trkpt>
      <trkpt lat="43.66154" lon="3.27666">
        <ele>459.30960272847</ele>
        <time>2016-01-09T12:55:35Z</time>
      </trkpt>
      <trkpt lat="43.66153" lon="3.27673">
        <ele>458.64762717538</ele>
        <time>2016-01-09T12:55:40Z</time>
      </trkpt>
      <trkpt lat="43.66124" lon="3.27717">
        <ele>457.72118117946</ele>
        <time>2016-01-09T12:56:55Z</time>
      </trkpt>
      <trkpt lat="43.66089" lon="3.27758">
        <ele>456.15013750814</ele>
        <time>2016-01-09T12:57:34Z</time>
      </trkpt>
      <trkpt lat="43.66049" lon="3.278">
        <ele>453.98756762747</ele>
        <time>2016-01-09T12:59:58Z</time>
      </trkpt>
      <trkpt lat="43.66015" lon="3.27791">
        <ele>451.78863485484</ele>
        <time>2016-01-09T13:00:34Z</time>
      </trkpt>
      <trkpt lat="43.66011" lon="3.27785">
        <ele>451.78863485484</ele>
        <time>2016-01-09T13:00:53Z</time>
      </trkpt>
      <trkpt lat="43.66007" lon="3.27767">
        <ele>449.44807125559</ele>
        <time>2016-01-09T13:02:12Z</time>
      </trkpt>
      <trkpt lat="43.66006" lon="3.27763">
        <ele>449.44807125559</ele>
        <time>2016-01-09T13:02:20Z</time>
      </trkpt>
      <trkpt lat="43.66006" lon="3.27756">
        <ele>449.44807125559</ele>
        <time>2016-01-09T13:02:35Z</time>
      </trkpt>
      <trkpt lat="43.66005" lon="3.27748">
        <ele>447.272161251</ele>
        <time>2016-01-09T13:02:40Z</time>
      </trkpt>
      <trkpt lat="43.66004" lon="3.27741">
        <ele>447.272161251</ele>
        <time>2016-01-09T13:02:49Z</time>
      </trkpt>
      <trkpt lat="43.66004" lon="3.27712">
        <ele>444.96767850086</ele>
        <time>2016-01-09T13:03:07Z</time>
      </trkpt>
      <trkpt lat="43.66002" lon="3.27694">
        <ele>442.75315676067</ele>
        <time>2016-01-09T13:03:10Z</time>
      </trkpt>
      <trkpt lat="43.66001" lon="3.27685">
        <ele>442.75315676067</ele>
        <time>2016-01-09T13:03:15Z</time>
      </trkpt>
      <trkpt lat="43.66001" lon="3.27674">
        <ele>440.64334828195</ele>
        <time>2016-01-09T13:03:20Z</time>
      </trkpt>
      <trkpt lat="43.66001" lon="3.27667">
        <ele>440.64334828195</ele>
        <time>2016-01-09T13:03:25Z</time>
      </trkpt>
      <trkpt lat="43.66001" lon="3.27659">
        <ele>438.49296343437</ele>
        <time>2016-01-09T13:03:30Z</time>
      </trkpt>
      <trkpt lat="43.66001" lon="3.27651">
        <ele>438.49296343437</ele>
        <time>2016-01-09T13:03:35Z</time>
      </trkpt>
      <trkpt lat="43.66001" lon="3.27642">
        <ele>436.36910336174</ele>
        <time>2016-01-09T13:03:40Z</time>
      </trkpt>
      <trkpt lat="43.66001" lon="3.27632">
        <ele>436.36910336174</ele>
        <time>2016-01-09T13:03:45Z</time>
      </trkpt>
      <trkpt lat="43.66002" lon="3.27623">
        <ele>434.29047277347</ele>
        <time>2016-01-09T13:03:54Z</time>
      </trkpt>
      <trkpt lat="43.66006" lon="3.27568">
        <ele>432.23087605472</ele>
        <time>2016-01-09T13:04:18Z</time>
      </trkpt>
      <trkpt lat="43.66005" lon="3.27565">
        <ele>432.23087605472</ele>
        <time>2016-01-09T13:04:25Z</time>
      </trkpt>
      <trkpt lat="43.66009" lon="3.27504">
        <ele>430.54050665948</ele>
        <time>2016-01-09T13:04:55Z</time>
      </trkpt>
      <trkpt lat="43.66008" lon="3.27479">
        <ele>429.16793459906</ele>
        <time>2016-01-09T13:05:17Z</time>
      </trkpt>
      <trkpt lat="43.65995" lon="3.27423">
        <ele>427.94915339729</ele>
        <time>2016-01-09T13:05:47Z</time>
      </trkpt>
      <trkpt lat="43.65988" lon="3.27399">
        <ele>426.61631152073</ele>
        <time>2016-01-09T13:06:41Z</time>
      </trkpt>
      <trkpt lat="43.65925" lon="3.27412">
        <ele>424.77727230865</ele>
        <time>2016-01-09T13:07:39Z</time>
      </trkpt>
      <trkpt lat="43.65922" lon="3.27412">
        <ele>424.77727230865</ele>
        <time>2016-01-09T13:07:40Z</time>
      </trkpt>
      <trkpt lat="43.65919" lon="3.27413">
        <ele>424.77727230865</ele>
        <time>2016-01-09T13:07:45Z</time>
      </trkpt>
      <trkpt lat="43.65918" lon="3.27414">
        <ele>424.77727230865</ele>
        <time>2016-01-09T13:07:50Z</time>
      </trkpt>
      <trkpt lat="43.65916" lon="3.27416">
        <ele>423.12196946911</ele>
        <time>2016-01-09T13:08:30Z</time>
      </trkpt>
      <trkpt lat="43.65913" lon="3.27419">
        <ele>423.12196946911</ele>
        <time>2016-01-09T13:08:35Z</time>
      </trkpt>
      <trkpt lat="43.65913" lon="3.2742">
        <ele>423.12196946911</ele>
        <time>2016-01-09T13:08:40Z</time>
      </trkpt>
      <trkpt lat="43.65912" lon="3.27422">
        <ele>423.12196946911</ele>
        <time>2016-01-09T13:09:15Z</time>
      </trkpt>
      <trkpt lat="43.6591" lon="3.27426">
        <ele>421.88546362297</ele>
        <time>2016-01-09T13:09:20Z</time>
      </trkpt>
      <trkpt lat="43.65907" lon="3.27431">
        <ele>421.88546362297</ele>
        <time>2016-01-09T13:09:26Z</time>
      </trkpt>
      <trkpt lat="43.65904" lon="3.27435">
        <ele>420.8230565227</ele>
        <time>2016-01-09T13:09:30Z</time>
      </trkpt>
      <trkpt lat="43.65904" lon="3.27435">
        <ele>420.8230565227</ele>
        <time>2016-01-09T13:09:35Z</time>
      </trkpt>
      <trkpt lat="43.65903" lon="3.27439">
        <ele>420.8230565227</ele>
        <time>2016-01-09T13:09:40Z</time>
      </trkpt>
      <trkpt lat="43.65901" lon="3.27446">
        <ele>420.8230565227</ele>
        <time>2016-01-09T13:09:45Z</time>
      </trkpt>
      <trkpt lat="43.65897" lon="3.27451">
        <ele>419.98119203268</ele>
        <time>2016-01-09T13:09:50Z</time>
      </trkpt>
      <trkpt lat="43.65878" lon="3.2749">
        <ele>418.94097804025</ele>
        <time>2016-01-09T13:10:20Z</time>
      </trkpt>
      <trkpt lat="43.65841" lon="3.27546">
        <ele>417.57410749946</ele>
        <time>2016-01-09T13:11:06Z</time>
      </trkpt>
      <trkpt lat="43.65835" lon="3.27549">
        <ele>417.57410749946</ele>
        <time>2016-01-09T13:11:10Z</time>
      </trkpt>
      <trkpt lat="43.6583" lon="3.27554">
        <ele>416.28127892346</ele>
        <time>2016-01-09T13:11:15Z</time>
      </trkpt>
      <trkpt lat="43.65821" lon="3.27564">
        <ele>415.08755094045</ele>
        <time>2016-01-09T13:11:32Z</time>
      </trkpt>
      <trkpt lat="43.65811" lon="3.27569">
        <ele>414.04456094328</ele>
        <time>2016-01-09T13:11:32Z</time>
      </trkpt>
      <trkpt lat="43.65795" lon="3.27588">
        <ele>413.0266778678</ele>
        <time>2016-01-09T13:11:58Z</time>
      </trkpt>
      <trkpt lat="43.65787" lon="3.27595">
        <ele>412.11907218151</ele>
        <time>2016-01-09T13:11:58Z</time>
      </trkpt>
      <trkpt lat="43.65779" lon="3.27603">
        <ele>411.27054298532</ele>
        <time>2016-01-09T13:12:15Z</time>
      </trkpt>
      <trkpt lat="43.65771" lon="3.27611">
        <ele>410.5486760216</ele>
        <time>2016-01-09T13:12:15Z</time>
      </trkpt>
      <trkpt lat="43.65766" lon="3.27615">
        <ele>410.5486760216</ele>
        <time>2016-01-09T13:12:20Z</time>
      </trkpt>
      <trkpt lat="43.65749" lon="3.27633">
        <ele>409.6841911051</ele>
        <time>2016-01-09T13:12:39Z</time>
      </trkpt>
      <trkpt lat="43.6574" lon="3.27639">
        <ele>408.88906271201</ele>
        <time>2016-01-09T13:12:46Z</time>
      </trkpt>
      <trkpt lat="43.65739" lon="3.2764">
        <ele>408.88906271201</ele>
        <time>2016-01-09T13:12:47Z</time>
      </trkpt>
      <trkpt lat="43.65712" lon="3.27664">
        <ele>407.97032412377</ele>
        <time>2016-01-09T13:13:12Z</time>
      </trkpt>
      <trkpt lat="43.65708" lon="3.27666">
        <ele>407.97032412377</ele>
        <time>2016-01-09T13:13:15Z</time>
      </trkpt>
      <trkpt lat="43.65689" lon="3.27681">
        <ele>407.21061854926</ele>
        <time>2016-01-09T13:13:36Z</time>
      </trkpt>
      <trkpt lat="43.65686" lon="3.27682">
        <ele>407.21061854926</ele>
        <time>2016-01-09T13:13:37Z</time>
      </trkpt>
      <trkpt lat="43.65667" lon="3.27696">
        <ele>406.84249764674</ele>
        <time>2016-01-09T13:14:07Z</time>
      </trkpt>
      <trkpt lat="43.65659" lon="3.27707">
        <ele>406.66235675031</ele>
        <time>2016-01-09T13:14:07Z</time>
      </trkpt>
      <trkpt lat="43.65651" lon="3.27715">
        <ele>406.69714414208</ele>
        <time>2016-01-09T13:14:24Z</time>
      </trkpt>
      <trkpt lat="43.65643" lon="3.27725">
        <ele>406.9135485527</ele>
        <time>2016-01-09T13:14:24Z</time>
      </trkpt>
      <trkpt lat="43.65551" lon="3.27829">
        <ele>407.42428686702</ele>
        <time>2016-01-09T13:16:36Z</time>
      </trkpt>
      <trkpt lat="43.65533" lon="3.27888">
        <ele>407.74210608604</ele>
        <time>2016-01-09T13:17:15Z</time>
      </trkpt>
      <trkpt lat="43.6553" lon="3.27897">
        <ele>407.74210608604</ele>
        <time>2016-01-09T13:17:20Z</time>
      </trkpt>
      <trkpt lat="43.65524" lon="3.27912">
        <ele>407.76195806386</ele>
        <time>2016-01-09T13:17:34Z</time>
      </trkpt>
      <trkpt lat="43.65499" lon="3.28006">
        <ele>406.96943801448</ele>
        <time>2016-01-09T13:18:35Z</time>
      </trkpt>
      <trkpt lat="43.65487" lon="3.28039">
        <ele>406.15840637112</ele>
        <time>2016-01-09T13:18:54Z</time>
      </trkpt>
      <trkpt lat="43.65476" lon="3.28062">
        <ele>405.38716060443</ele>
        <time>2016-01-09T13:19:10Z</time>
      </trkpt>
      <trkpt lat="43.65442" lon="3.28168">
        <ele>405.1275530478</ele>
        <time>2016-01-09T13:20:45Z</time>
      </trkpt>
      <trkpt lat="43.65441" lon="3.28179">
        <ele>405.1275530478</ele>
        <time>2016-01-09T13:21:12Z</time>
      </trkpt>
      <trkpt lat="43.65431" lon="3.28192">
        <ele>405.10922287234</ele>
        <time>2016-01-09T13:21:25Z</time>
      </trkpt>
      <trkpt lat="43.65426" lon="3.2824">
        <ele>405.28278118149</ele>
        <time>2016-01-09T13:22:00Z</time>
      </trkpt>
      <trkpt lat="43.65426" lon="3.28247">
        <ele>405.28278118149</ele>
        <time>2016-01-09T13:22:10Z</time>
      </trkpt>
      <trkpt lat="43.65422" lon="3.28257">
        <ele>405.55873349129</ele>
        <time>2016-01-09T13:22:18Z</time>
      </trkpt>
      <trkpt lat="43.65422" lon="3.28262">
        <ele>405.55873349129</ele>
        <time>2016-01-09T13:22:20Z</time>
      </trkpt>
      <trkpt lat="43.6542" lon="3.28278">
        <ele>405.73862773543</ele>
        <time>2016-01-09T13:22:38Z</time>
      </trkpt>
      <trkpt lat="43.65407" lon="3.2835">
        <ele>405.50920968041</ele>
        <time>2016-01-09T13:23:26Z</time>
      </trkpt>
      <trkpt lat="43.65389" lon="3.28443">
        <ele>404.98495077403</ele>
        <time>2016-01-09T13:25:24Z</time>
      </trkpt>
      <trkpt lat="43.65389" lon="3.28445">
        <ele>404.98495077403</ele>
        <time>2016-01-09T13:25:25Z</time>
      </trkpt>
      <trkpt lat="43.65384" lon="3.28473">
        <ele>404.60425387483</ele>
        <time>2016-01-09T13:25:48Z</time>
      </trkpt>
      <trkpt lat="43.65384" lon="3.28482">
        <ele>404.60425387483</ele>
        <time>2016-01-09T13:25:48Z</time>
      </trkpt>
      <trkpt lat="43.65383" lon="3.28483">
        <ele>404.60425387483</ele>
        <time>2016-01-09T13:26:13Z</time>
      </trkpt>
      <trkpt lat="43.65382" lon="3.28494">
        <ele>404.28299520463</ele>
        <time>2016-01-09T13:26:13Z</time>
      </trkpt>
      <trkpt lat="43.65383" lon="3.28509">
        <ele>404.01517870173</ele>
        <time>2016-01-09T13:26:30Z</time>
      </trkpt>
      <trkpt lat="43.65382" lon="3.2852">
        <ele>404.01517870173</ele>
        <time>2016-01-09T13:26:30Z</time>
      </trkpt>
      <trkpt lat="43.65381" lon="3.28572">
        <ele>403.66545803865</ele>
        <time>2016-01-09T13:27:08Z</time>
      </trkpt>
      <trkpt lat="43.6538" lon="3.28627">
        <ele>403.02225131983</ele>
        <time>2016-01-09T13:27:37Z</time>
      </trkpt>
      <trkpt lat="43.65384" lon="3.2866">
        <ele>402.29391180842</ele>
        <time>2016-01-09T13:28:00Z</time>
      </trkpt>
      <trkpt lat="43.65384" lon="3.28664">
        <ele>402.29391180842</ele>
        <time>2016-01-09T13:28:02Z</time>
      </trkpt>
      <trkpt lat="43.65373" lon="3.28721">
        <ele>401.32791484899</ele>
        <time>2016-01-09T13:28:59Z</time>
      </trkpt>
      <trkpt lat="43.65373" lon="3.28722">
        <ele>401.32791484899</ele>
        <time>2016-01-09T13:29:00Z</time>
      </trkpt>
      <trkpt lat="43.65371" lon="3.2873">
        <ele>401.32791484899</ele>
        <time>2016-01-09T13:29:05Z</time>
      </trkpt>
      <trkpt lat="43.65369" lon="3.28737">
        <ele>400.40158136545</ele>
        <time>2016-01-09T13:29:10Z</time>
      </trkpt>
      <trkpt lat="43.65367" lon="3.28744">
        <ele>400.40158136545</ele>
        <time>2016-01-09T13:29:15Z</time>
      </trkpt>
      <trkpt lat="43.65367" lon="3.28751">
        <ele>399.46916350692</ele>
        <time>2016-01-09T13:29:20Z</time>
      </trkpt>
      <trkpt lat="43.65365" lon="3.28755">
        <ele>399.46916350692</ele>
        <time>2016-01-09T13:29:25Z</time>
      </trkpt>
      <trkpt lat="43.65364" lon="3.28756">
        <ele>399.46916350692</ele>
        <time>2016-01-09T13:29:30Z</time>
      </trkpt>
      <trkpt lat="43.65361" lon="3.28762">
        <ele>398.66126781242</ele>
        <time>2016-01-09T13:29:35Z</time>
      </trkpt>
      <trkpt lat="43.65359" lon="3.28768">
        <ele>398.66126781242</ele>
        <time>2016-01-09T13:29:40Z</time>
      </trkpt>
      <trkpt lat="43.65356" lon="3.28772">
        <ele>397.91125177237</ele>
        <time>2016-01-09T13:29:45Z</time>
      </trkpt>
      <trkpt lat="43.65353" lon="3.28777">
        <ele>397.91125177237</ele>
        <time>2016-01-09T13:29:50Z</time>
      </trkpt>
      <trkpt lat="43.65352" lon="3.28778">
        <ele>397.91125177237</ele>
        <time>2016-01-09T13:29:55Z</time>
      </trkpt>
      <trkpt lat="43.6535" lon="3.28781">
        <ele>397.91125177237</ele>
        <time>2016-01-09T13:30:00Z</time>
      </trkpt>
      <trkpt lat="43.65346" lon="3.28786">
        <ele>397.12841914402</ele>
        <time>2016-01-09T13:30:05Z</time>
      </trkpt>
      <trkpt lat="43.65344" lon="3.28792">
        <ele>397.12841914402</ele>
        <time>2016-01-09T13:30:10Z</time>
      </trkpt>
      <trkpt lat="43.65341" lon="3.28798">
        <ele>396.3729715745</ele>
        <time>2016-01-09T13:30:15Z</time>
      </trkpt>
      <trkpt lat="43.65338" lon="3.28805">
        <ele>396.3729715745</ele>
        <time>2016-01-09T13:30:20Z</time>
      </trkpt>
      <trkpt lat="43.65336" lon="3.2881">
        <ele>395.7294633279</ele>
        <time>2016-01-09T13:30:26Z</time>
      </trkpt>
      <trkpt lat="43.65336" lon="3.28812">
        <ele>395.7294633279</ele>
        <time>2016-01-09T13:30:30Z</time>
      </trkpt>
      <trkpt lat="43.65333" lon="3.28819">
        <ele>395.7294633279</ele>
        <time>2016-01-09T13:31:05Z</time>
      </trkpt>
      <trkpt lat="43.65333" lon="3.28819">
        <ele>395.7294633279</ele>
        <time>2016-01-09T13:31:10Z</time>
      </trkpt>
      <trkpt lat="43.65328" lon="3.28826">
        <ele>395.2327175699</ele>
        <time>2016-01-09T13:32:25Z</time>
      </trkpt>
      <trkpt lat="43.65313" lon="3.28864">
        <ele>394.65521350857</ele>
        <time>2016-01-09T13:33:00Z</time>
      </trkpt>
      <trkpt lat="43.65297" lon="3.28885">
        <ele>393.88727273827</ele>
        <time>2016-01-09T13:33:25Z</time>
      </trkpt>
      <trkpt lat="43.65281" lon="3.28906">
        <ele>392.94311969035</ele>
        <time>2016-01-09T13:33:38Z</time>
      </trkpt>
      <trkpt lat="43.65279" lon="3.28908">
        <ele>392.94311969035</ele>
        <time>2016-01-09T13:33:40Z</time>
      </trkpt>
      <trkpt lat="43.65274" lon="3.28913">
        <ele>392.94311969035</ele>
        <time>2016-01-09T13:33:45Z</time>
      </trkpt>
      <trkpt lat="43.65257" lon="3.28942">
        <ele>392.23996041019</ele>
        <time>2016-01-09T13:34:08Z</time>
      </trkpt>
      <trkpt lat="43.65253" lon="3.28951">
        <ele>392.23996041019</ele>
        <time>2016-01-09T13:34:14Z</time>
      </trkpt>
      <trkpt lat="43.65245" lon="3.28994">
        <ele>391.55842897502</ele>
        <time>2016-01-09T13:35:25Z</time>
      </trkpt>
      <trkpt lat="43.65237" lon="3.29079">
        <ele>390.95463000773</ele>
        <time>2016-01-09T13:36:39Z</time>
      </trkpt>
      <trkpt lat="43.65226" lon="3.29166">
        <ele>389.88948712165</ele>
        <time>2016-01-09T13:37:17Z</time>
      </trkpt>
      <trkpt lat="43.65225" lon="3.29171">
        <ele>389.88948712165</ele>
        <time>2016-01-09T13:37:21Z</time>
      </trkpt>
      <trkpt lat="43.65223" lon="3.29178">
        <ele>388.8880196828</ele>
        <time>2016-01-09T13:37:25Z</time>
      </trkpt>
      <trkpt lat="43.65217" lon="3.29199">
        <ele>387.90329879335</ele>
        <time>2016-01-09T13:37:39Z</time>
      </trkpt>
      <trkpt lat="43.65215" lon="3.29204">
        <ele>387.90329879335</ele>
        <time>2016-01-09T13:37:42Z</time>
      </trkpt>
      <trkpt lat="43.65214" lon="3.29208">
        <ele>387.90329879335</ele>
        <time>2016-01-09T13:37:45Z</time>
      </trkpt>
      <trkpt lat="43.6521" lon="3.29222">
        <ele>386.84856855303</ele>
        <time>2016-01-09T13:38:12Z</time>
      </trkpt>
      <trkpt lat="43.65206" lon="3.29246">
        <ele>385.84540051578</ele>
        <time>2016-01-09T13:38:12Z</time>
      </trkpt>
      <trkpt lat="43.65179" lon="3.29266">
        <ele>384.93423471648</ele>
        <time>2016-01-09T13:38:56Z</time>
      </trkpt>
      <trkpt lat="43.65173" lon="3.2927">
        <ele>384.93423471648</ele>
        <time>2016-01-09T13:38:56Z</time>
      </trkpt>
      <trkpt lat="43.65051" lon="3.29371">
        <ele>384.13786801549</ele>
        <time>2016-01-09T13:41:25Z</time>
      </trkpt>
      <trkpt lat="43.65021" lon="3.29433">
        <ele>383.11681701929</ele>
        <time>2016-01-09T13:41:45Z</time>
      </trkpt>
      <trkpt lat="43.64994" lon="3.29514">
        <ele>381.52833602459</ele>
        <time>2016-01-09T13:42:59Z</time>
      </trkpt>
      <trkpt lat="43.64975" lon="3.29539">
        <ele>379.86345920103</ele>
        <time>2016-01-09T13:43:32Z</time>
      </trkpt>
      <trkpt lat="43.64974" lon="3.29539">
        <ele>379.86345920103</ele>
        <time>2016-01-09T13:45:01Z</time>
      </trkpt>
      <trkpt lat="43.64987" lon="3.29567">
        <ele>378.15942415972</ele>
        <time>2016-01-09T13:45:40Z</time>
      </trkpt>
      <trkpt lat="43.64991" lon="3.29572">
        <ele>378.15942415972</ele>
        <time>2016-01-09T13:45:45Z</time>
      </trkpt>
      <trkpt lat="43.65" lon="3.29583">
        <ele>376.50846381103</ele>
        <time>2016-01-09T13:46:00Z</time>
      </trkpt>
      <trkpt lat="43.65004" lon="3.29589">
        <ele>376.50846381103</ele>
        <time>2016-01-09T13:46:05Z</time>
      </trkpt>
      <trkpt lat="43.65009" lon="3.29594">
        <ele>374.99585692634</ele>
        <time>2016-01-09T13:46:15Z</time>
      </trkpt>
      <trkpt lat="43.65014" lon="3.29599">
        <ele>374.99585692634</ele>
        <time>2016-01-09T13:46:20Z</time>
      </trkpt>
      <trkpt lat="43.6502" lon="3.29609">
        <ele>373.55608308875</ele>
        <time>2016-01-09T13:46:30Z</time>
      </trkpt>
      <trkpt lat="43.65025" lon="3.29611">
        <ele>373.55608308875</ele>
        <time>2016-01-09T13:46:35Z</time>
      </trkpt>
      <trkpt lat="43.65037" lon="3.29623">
        <ele>372.17142419279</ele>
        <time>2016-01-09T13:47:00Z</time>
      </trkpt>
      <trkpt lat="43.6504" lon="3.29627">
        <ele>372.17142419279</ele>
        <time>2016-01-09T13:47:01Z</time>
      </trkpt>
      <trkpt lat="43.65042" lon="3.29631">
        <ele>372.17142419279</ele>
        <time>2016-01-09T13:47:27Z</time>
      </trkpt>
      <trkpt lat="43.65042" lon="3.29635">
        <ele>370.72438793434</ele>
        <time>2016-01-09T13:47:54Z</time>
      </trkpt>
      <trkpt lat="43.65014" lon="3.29591">
        <ele>369.2215306619</ele>
        <time>2016-01-09T14:00:52Z</time>
      </trkpt>
      <trkpt lat="43.64996" lon="3.29569">
        <ele>367.98608005074</ele>
        <time>2016-01-09T14:01:16Z</time>
      </trkpt>
      <trkpt lat="43.64978" lon="3.29557">
        <ele>366.86997535896</ele>
        <time>2016-01-09T14:01:25Z</time>
      </trkpt>
      <trkpt lat="43.64976" lon="3.29556">
        <ele>366.86997535896</ele>
        <time>2016-01-09T14:01:30Z</time>
      </trkpt>
      <trkpt lat="43.64974" lon="3.29554">
        <ele>366.86997535896</ele>
        <time>2016-01-09T14:01:35Z</time>
      </trkpt>
      <trkpt lat="43.64952" lon="3.29534">
        <ele>365.96622564538</ele>
        <time>2016-01-09T14:01:55Z</time>
      </trkpt>
      <trkpt lat="43.64948" lon="3.29529">
        <ele>365.96622564538</ele>
        <time>2016-01-09T14:02:00Z</time>
      </trkpt>
      <trkpt lat="43.64783" lon="3.29355">
        <ele>363.11222551469</ele>
        <time>2016-01-09T14:05:15Z</time>
      </trkpt>
      <trkpt lat="43.64763" lon="3.29342">
        <ele>360.20064990592</ele>
        <time>2016-01-09T14:05:15Z</time>
      </trkpt>
      <trkpt lat="43.6473" lon="3.29341">
        <ele>357.03973658351</ele>
        <time>2016-01-09T14:05:45Z</time>
      </trkpt>
      <trkpt lat="43.64725" lon="3.29344">
        <ele>357.03973658351</ele>
        <time>2016-01-09T14:05:47Z</time>
      </trkpt>
      <trkpt lat="43.64706" lon="3.29354">
        <ele>353.855947038</ele>
        <time>2016-01-09T14:06:00Z</time>
      </trkpt>
      <trkpt lat="43.64685" lon="3.2936">
        <ele>350.45557294726</ele>
        <time>2016-01-09T14:06:43Z</time>
      </trkpt>
      <trkpt lat="43.64674" lon="3.29358">
        <ele>347.22167723263</ele>
        <time>2016-01-09T14:07:08Z</time>
      </trkpt>
      <trkpt lat="43.64662" lon="3.29355">
        <ele>344.23479390091</ele>
        <time>2016-01-09T14:07:09Z</time>
      </trkpt>
      <trkpt lat="43.64587" lon="3.29337">
        <ele>340.97787059699</ele>
        <time>2016-01-09T14:08:18Z</time>
      </trkpt>
      <trkpt lat="43.64577" lon="3.29333">
        <ele>337.95242034946</ele>
        <time>2016-01-09T14:08:18Z</time>
      </trkpt>
      <trkpt lat="43.64555" lon="3.29317">
        <ele>335.20440637401</ele>
        <time>2016-01-09T14:08:39Z</time>
      </trkpt>
      <trkpt lat="43.64536" lon="3.29295">
        <ele>332.15581620119</ele>
        <time>2016-01-09T14:09:04Z</time>
      </trkpt>
      <trkpt lat="43.64533" lon="3.29292">
        <ele>332.15581620119</ele>
        <time>2016-01-09T14:09:04Z</time>
      </trkpt>
      <trkpt lat="43.64518" lon="3.29256">
        <ele>329.02117140186</ele>
        <time>2016-01-09T14:09:38Z</time>
      </trkpt>
      <trkpt lat="43.64515" lon="3.29228">
        <ele>325.99932503947</ele>
        <time>2016-01-09T14:09:55Z</time>
      </trkpt>
      <trkpt lat="43.64513" lon="3.29213">
        <ele>323.23081880192</ele>
        <time>2016-01-09T14:09:55Z</time>
      </trkpt>
      <trkpt lat="43.64509" lon="3.2917">
        <ele>320.26855859317</ele>
        <time>2016-01-09T14:10:28Z</time>
      </trkpt>
      <trkpt lat="43.64507" lon="3.29161">
        <ele>320.26855859317</ele>
        <time>2016-01-09T14:10:45Z</time>
      </trkpt>
      <trkpt lat="43.64517" lon="3.29124">
        <ele>317.59216920949</ele>
        <time>2016-01-09T14:10:57Z</time>
      </trkpt>
      <trkpt lat="43.64518" lon="3.29121">
        <ele>317.59216920949</ele>
        <time>2016-01-09T14:10:57Z</time>
      </trkpt>
      <trkpt lat="43.64539" lon="3.29046">
        <ele>314.01662599793</ele>
        <time>2016-01-09T14:11:49Z</time>
      </trkpt>
      <trkpt lat="43.6456" lon="3.28947">
        <ele>309.82978438527</ele>
        <time>2016-01-09T14:12:48Z</time>
      </trkpt>
      <trkpt lat="43.64587" lon="3.28837">
        <ele>304.72345792922</ele>
        <time>2016-01-09T14:14:00Z</time>
      </trkpt>
      <trkpt lat="43.64608" lon="3.28741">
        <ele>299.40887049025</ele>
        <time>2016-01-09T14:15:03Z</time>
      </trkpt>
      <trkpt lat="43.64609" lon="3.28736">
        <ele>299.40887049025</ele>
        <time>2016-01-09T14:15:09Z</time>
      </trkpt>
      <trkpt lat="43.64675" lon="3.28682">
        <ele>294.43010798139</ele>
        <time>2016-01-09T14:16:19Z</time>
      </trkpt>
      <trkpt lat="43.64669" lon="3.28677">
        <ele>294.43010798139</ele>
        <time>2016-01-09T14:16:19Z</time>
      </trkpt>
      <trkpt lat="43.64622" lon="3.28686">
        <ele>290.0595690572</ele>
        <time>2016-01-09T14:17:00Z</time>
      </trkpt>
      <trkpt lat="43.64563" lon="3.28728">
        <ele>286.73507258482</ele>
        <time>2016-01-09T14:17:57Z</time>
      </trkpt>
      <trkpt lat="43.64562" lon="3.28732">
        <ele>286.73507258482</ele>
        <time>2016-01-09T14:18:00Z</time>
      </trkpt>
      <trkpt lat="43.64526" lon="3.28819">
        <ele>283.98005171626</ele>
        <time>2016-01-09T14:19:05Z</time>
      </trkpt>
      <trkpt lat="43.64495" lon="3.28863">
        <ele>281.81229797688</ele>
        <time>2016-01-09T14:19:38Z</time>
      </trkpt>
      <trkpt lat="43.64449" lon="3.28908">
        <ele>280.00146034118</ele>
        <time>2016-01-09T14:20:28Z</time>
      </trkpt>
      <trkpt lat="43.64436" lon="3.28937">
        <ele>278.13116622677</ele>
        <time>2016-01-09T14:20:44Z</time>
      </trkpt>
      <trkpt lat="43.6443" lon="3.28964">
        <ele>276.57941514948</ele>
        <time>2016-01-09T14:21:04Z</time>
      </trkpt>
      <trkpt lat="43.64385" lon="3.29032">
        <ele>274.87395800248</ele>
        <time>2016-01-09T14:21:56Z</time>
      </trkpt>
      <trkpt lat="43.64378" lon="3.29041">
        <ele>273.41337609088</ele>
        <time>2016-01-09T14:22:11Z</time>
      </trkpt>
      <trkpt lat="43.64372" lon="3.29056">
        <ele>272.11941994813</ele>
        <time>2016-01-09T14:22:11Z</time>
      </trkpt>
      <trkpt lat="43.64368" lon="3.29069">
        <ele>271.01989627203</ele>
        <time>2016-01-09T14:22:19Z</time>
      </trkpt>
      <trkpt lat="43.64334" lon="3.29162">
        <ele>269.73642684974</ele>
        <time>2016-01-09T14:23:23Z</time>
      </trkpt>
      <trkpt lat="43.64329" lon="3.29189">
        <ele>268.71148788692</ele>
        <time>2016-01-09T14:23:38Z</time>
      </trkpt>
      <trkpt lat="43.64325" lon="3.29202">
        <ele>267.93635245091</ele>
        <time>2016-01-09T14:23:41Z</time>
      </trkpt>
      <trkpt lat="43.64325" lon="3.29216">
        <ele>267.33014378802</ele>
        <time>2016-01-09T14:23:57Z</time>
      </trkpt>
      <trkpt lat="43.64321" lon="3.29229">
        <ele>266.75979020823</ele>
        <time>2016-01-09T14:23:57Z</time>
      </trkpt>
      <trkpt lat="43.64318" lon="3.29274">
        <ele>265.79925975717</ele>
        <time>2016-01-09T14:24:23Z</time>
      </trkpt>
      <trkpt lat="43.64325" lon="3.29303">
        <ele>264.55931323774</ele>
        <time>2016-01-09T14:24:45Z</time>
      </trkpt>
      <trkpt lat="43.64341" lon="3.2934">
        <ele>262.73987227771</ele>
        <time>2016-01-09T14:25:05Z</time>
      </trkpt>
      <trkpt lat="43.64348" lon="3.29421">
        <ele>259.35841354904</ele>
        <time>2016-01-09T14:25:54Z</time>
      </trkpt>
      <trkpt lat="43.64348" lon="3.29423">
        <ele>259.35841354904</ele>
        <time>2016-01-09T14:25:55Z</time>
      </trkpt>
      <trkpt lat="43.644" lon="3.29473">
        <ele>253.6675209672</ele>
        <time>2016-01-09T14:27:03Z</time>
      </trkpt>
      <trkpt lat="43.64414" lon="3.29501">
        <ele>247.80575708916</ele>
        <time>2016-01-09T14:27:26Z</time>
      </trkpt>
      <trkpt lat="43.64414" lon="3.29509">
        <ele>247.80575708916</ele>
        <time>2016-01-09T14:27:26Z</time>
      </trkpt>
      <trkpt lat="43.64414" lon="3.29527">
        <ele>241.95367393959</ele>
        <time>2016-01-09T14:27:54Z</time>
      </trkpt>
      <trkpt lat="43.64426" lon="3.29574">
        <ele>237.09994104626</ele>
        <time>2016-01-09T14:28:15Z</time>
      </trkpt>
      <trkpt lat="43.64432" lon="3.29581">
        <ele>237.09994104626</ele>
        <time>2016-01-09T14:28:23Z</time>
      </trkpt>
      <trkpt lat="43.64434" lon="3.29584">
        <ele>232.80310716449</ele>
        <time>2016-01-09T14:28:26Z</time>
      </trkpt>
      <trkpt lat="43.64439" lon="3.29589">
        <ele>232.80310716449</ele>
        <time>2016-01-09T14:28:30Z</time>
      </trkpt>
      <trkpt lat="43.6444" lon="3.2959">
        <ele>232.80310716449</ele>
        <time>2016-01-09T14:28:35Z</time>
      </trkpt>
      <trkpt lat="43.64444" lon="3.29593">
        <ele>228.94074468334</ele>
        <time>2016-01-09T14:28:40Z</time>
      </trkpt>
      <trkpt lat="43.645" lon="3.29694">
        <ele>225.93133635941</ele>
        <time>2016-01-09T14:29:55Z</time>
      </trkpt>
      <trkpt lat="43.64509" lon="3.29715">
        <ele>223.39636183823</ele>
        <time>2016-01-09T14:30:11Z</time>
      </trkpt>
      <trkpt lat="43.64516" lon="3.29723">
        <ele>223.39636183823</ele>
        <time>2016-01-09T14:30:19Z</time>
      </trkpt>
      <trkpt lat="43.64525" lon="3.29743">
        <ele>220.26313971462</ele>
        <time>2016-01-09T14:31:05Z</time>
      </trkpt>
      <trkpt lat="43.64555" lon="3.29786">
        <ele>217.41283308837</ele>
        <time>2016-01-09T14:31:52Z</time>
      </trkpt>
      <trkpt lat="43.64565" lon="3.29794">
        <ele>214.88280845524</ele>
        <time>2016-01-09T14:31:52Z</time>
      </trkpt>
      <trkpt lat="43.64572" lon="3.29803">
        <ele>212.74995490874</ele>
        <time>2016-01-09T14:32:00Z</time>
      </trkpt>
      <trkpt lat="43.64587" lon="3.29815">
        <ele>210.47907094345</ele>
        <time>2016-01-09T14:32:33Z</time>
      </trkpt>
      <trkpt lat="43.64588" lon="3.29816">
        <ele>210.47907094345</ele>
        <time>2016-01-09T14:32:34Z</time>
      </trkpt>
      <trkpt lat="43.64658" lon="3.29871">
        <ele>208.43927140326</ele>
        <time>2016-01-09T14:33:51Z</time>
      </trkpt>
      <trkpt lat="43.64662" lon="3.29877">
        <ele>208.43927140326</ele>
        <time>2016-01-09T14:33:55Z</time>
      </trkpt>
      <trkpt lat="43.6467" lon="3.299">
        <ele>206.42424072244</ele>
        <time>2016-01-09T14:34:17Z</time>
      </trkpt>
      <trkpt lat="43.64685" lon="3.29944">
        <ele>204.25712470781</ele>
        <time>2016-01-09T14:34:42Z</time>
      </trkpt>
      <trkpt lat="43.64689" lon="3.29951">
        <ele>204.25712470781</ele>
        <time>2016-01-09T14:34:42Z</time>
      </trkpt>
      <trkpt lat="43.64746" lon="3.30033">
        <ele>201.73122560615</ele>
        <time>2016-01-09T14:36:00Z</time>
      </trkpt>
      <trkpt lat="43.64816" lon="3.30073">
        <ele>198.51190191556</ele>
        <time>2016-01-09T14:37:00Z</time>
      </trkpt>
      <trkpt lat="43.64832" lon="3.3009">
        <ele>195.44390979016</ele>
        <time>2016-01-09T14:37:18Z</time>
      </trkpt>
      <trkpt lat="43.64835" lon="3.30092">
        <ele>195.44390979016</ele>
        <time>2016-01-09T14:37:25Z</time>
      </trkpt>
      <trkpt lat="43.64839" lon="3.30095">
        <ele>195.44390979016</ele>
        <time>2016-01-09T14:37:25Z</time>
      </trkpt>
      <trkpt lat="43.6485" lon="3.30105">
        <ele>192.71865198746</ele>
        <time>2016-01-09T14:37:44Z</time>
      </trkpt>
      <trkpt lat="43.64861" lon="3.30108">
        <ele>190.19544798698</ele>
        <time>2016-01-09T14:37:45Z</time>
      </trkpt>
      <trkpt lat="43.64869" lon="3.30111">
        <ele>190.19544798698</ele>
        <time>2016-01-09T14:37:50Z</time>
      </trkpt>
      <trkpt lat="43.64874" lon="3.30112">
        <ele>187.85865831306</ele>
        <time>2016-01-09T14:37:59Z</time>
      </trkpt>
      <trkpt lat="43.64944" lon="3.30183">
        <ele>186.06794703071</ele>
        <time>2016-01-09T14:39:34Z</time>
      </trkpt>
      <trkpt lat="43.64946" lon="3.30186">
        <ele>186.06794703071</ele>
        <time>2016-01-09T14:39:34Z</time>
      </trkpt>
      <trkpt lat="43.64969" lon="3.30219">
        <ele>183.87242976669</ele>
        <time>2016-01-09T14:40:11Z</time>
      </trkpt>
      <trkpt lat="43.65052" lon="3.3024">
        <ele>181.19923026599</ele>
        <time>2016-01-09T14:41:09Z</time>
      </trkpt>
      <trkpt lat="43.65054" lon="3.30242">
        <ele>181.19923026599</ele>
        <time>2016-01-09T14:41:14Z</time>
      </trkpt>
      <trkpt lat="43.65095" lon="3.30267">
        <ele>178.42891328906</ele>
        <time>2016-01-09T14:41:48Z</time>
      </trkpt>
      <trkpt lat="43.65098" lon="3.30271">
        <ele>178.42891328906</ele>
        <time>2016-01-09T14:41:48Z</time>
      </trkpt>
      <trkpt lat="43.651" lon="3.30273">
        <ele>178.42891328906</ele>
        <time>2016-01-09T14:41:50Z</time>
      </trkpt>
      <trkpt lat="43.65118" lon="3.30303">
        <ele>175.77025473331</ele>
        <time>2016-01-09T14:42:23Z</time>
      </trkpt>
      <trkpt lat="43.65152" lon="3.30318">
        <ele>173.1858101045</ele>
        <time>2016-01-09T14:42:52Z</time>
      </trkpt>
      <trkpt lat="43.65157" lon="3.30315">
        <ele>173.1858101045</ele>
        <time>2016-01-09T14:42:55Z</time>
      </trkpt>
      <trkpt lat="43.65161" lon="3.3031">
        <ele>171.07301965387</ele>
        <time>2016-01-09T14:43:00Z</time>
      </trkpt>
      <trkpt lat="43.65162" lon="3.30308">
        <ele>171.07301965387</ele>
        <time>2016-01-09T14:43:05Z</time>
      </trkpt>
      <trkpt lat="43.65166" lon="3.30305">
        <ele>171.07301965387</ele>
        <time>2016-01-09T14:43:10Z</time>
      </trkpt>
      <trkpt lat="43.6517" lon="3.30302">
        <ele>169.38089416871</ele>
        <time>2016-01-09T14:43:15Z</time>
      </trkpt>
      <trkpt lat="43.65172" lon="3.30298">
        <ele>169.38089416871</ele>
        <time>2016-01-09T14:43:20Z</time>
      </trkpt>
      <trkpt lat="43.65175" lon="3.30297">
        <ele>169.38089416871</ele>
        <time>2016-01-09T14:43:25Z</time>
      </trkpt>
      <trkpt lat="43.65181" lon="3.30294">
        <ele>168.01779354067</ele>
        <time>2016-01-09T14:43:30Z</time>
      </trkpt>
      <trkpt lat="43.65186" lon="3.30292">
        <ele>168.01779354067</ele>
        <time>2016-01-09T14:43:35Z</time>
      </trkpt>
      <trkpt lat="43.6519" lon="3.3029">
        <ele>166.95555541003</ele>
        <time>2016-01-09T14:43:40Z</time>
      </trkpt>
      <trkpt lat="43.65196" lon="3.30288">
        <ele>166.95555541003</ele>
        <time>2016-01-09T14:43:45Z</time>
      </trkpt>
      <trkpt lat="43.652" lon="3.30287">
        <ele>166.18168775143</ele>
        <time>2016-01-09T14:43:50Z</time>
      </trkpt>
      <trkpt lat="43.65238" lon="3.30277">
        <ele>166.27471029612</ele>
        <time>2016-01-09T14:44:23Z</time>
      </trkpt>
      <trkpt lat="43.6524" lon="3.30275">
        <ele>166.27471029612</ele>
        <time>2016-01-09T14:44:25Z</time>
      </trkpt>
      <trkpt lat="43.65261" lon="3.30262">
        <ele>167.09095375567</ele>
        <time>2016-01-09T14:44:48Z</time>
      </trkpt>
      <trkpt lat="43.65283" lon="3.30256">
        <ele>168.97092374567</ele>
        <time>2016-01-09T14:45:07Z</time>
      </trkpt>
      <trkpt lat="43.65306" lon="3.30266">
        <ele>170.85817868075</ele>
        <time>2016-01-09T14:45:33Z</time>
      </trkpt>
      <trkpt lat="43.6532" lon="3.30267">
        <ele>172.5810166253</ele>
        <time>2016-01-09T14:45:33Z</time>
      </trkpt>
      <trkpt lat="43.65335" lon="3.30273">
        <ele>174.12507906177</ele>
        <time>2016-01-09T14:45:47Z</time>
      </trkpt>
      <trkpt lat="43.65339" lon="3.30272">
        <ele>174.12507906177</ele>
        <time>2016-01-09T14:45:50Z</time>
      </trkpt>
      <trkpt lat="43.65426" lon="3.30288">
        <ele>174.32485432154</ele>
        <time>2016-01-09T14:47:12Z</time>
      </trkpt>
      <trkpt lat="43.65431" lon="3.30292">
        <ele>174.32485432154</ele>
        <time>2016-01-09T14:47:15Z</time>
      </trkpt>
      <trkpt lat="43.65441" lon="3.30295">
        <ele>175.8368983421</ele>
        <time>2016-01-09T14:47:31Z</time>
      </trkpt>
      <trkpt lat="43.65441" lon="3.30295">
        <ele>175.8368983421</ele>
        <time>2016-01-09T14:47:35Z</time>
      </trkpt>
      <trkpt lat="43.6544" lon="3.30295">
        <ele>175.8368983421</ele>
        <time>2016-01-09T14:47:40Z</time>
      </trkpt>
    </trkseg>
  </trk>
</gpx>